<?xml version='1.0' encoding='UTF-8'?>
<gpx version="1.1" creator="https://www.komoot.de" xmlns="http://www.topografix.com/GPX/1/1" xmlns:xsi="http://www.w3.org/2001/XMLSchema-instance" xsi:schemaLocation="http://www.topografix.com/GPX/1/1 http://www.topografix.com/GPX/1/1/gpx.xsd">
  <metadata>
    <name>260903 Groningen Morning Commute</name>
    <author>
      <link href="https://www.komoot.de">
        <text>komoot</text>
        <type>text/html</type>
      </link>
    </author>
  </metadata>
  <trk>
    <name>260903 Groningen Morning Commute</name>
    <type>touring_bicycle</type>
    <trkseg>
      <trkpt lat="53.201864" lon="6.554603">
        <ele>1.703052</ele>
        <time>2026-09-03T06:02:11.504Z</time>
      </trkpt>
      <trkpt lat="53.201751" lon="6.554737">
        <ele>1.703052</ele>
        <time>2026-09-03T06:02:22.930Z</time>
      </trkpt>
      <trkpt lat="53.201649" lon="6.554790">
        <ele>1.703052</ele>
        <time>2026-09-03T06:02:26.922Z</time>
      </trkpt>
      <trkpt lat="53.201594" lon="6.554932">
        <ele>1.703052</ele>
        <time>2026-09-03T06:02:30.922Z</time>
      </trkpt>
      <trkpt lat="53.201608" lon="6.555105">
        <ele>1.703052</ele>
        <time>2026-09-03T06:02:33.930Z</time>
      </trkpt>
      <trkpt lat="53.201649" lon="6.555295">
        <ele>1.703052</ele>
        <time>2026-09-03T06:02:36.930Z</time>
      </trkpt>
      <trkpt lat="53.201697" lon="6.555494">
        <ele>1.703052</ele>
        <time>2026-09-03T06:02:39.920Z</time>
      </trkpt>
      <trkpt lat="53.201745" lon="6.555696">
        <ele>1.703052</ele>
        <time>2026-09-03T06:02:42.925Z</time>
      </trkpt>
      <trkpt lat="53.201792" lon="6.555907">
        <ele>1.687552</ele>
        <time>2026-09-03T06:02:45.926Z</time>
      </trkpt>
      <trkpt lat="53.201840" lon="6.556117">
        <ele>1.656149</ele>
        <time>2026-09-03T06:02:48.923Z</time>
      </trkpt>
      <trkpt lat="53.201870" lon="6.556260">
        <ele>1.634981</ele>
        <time>2026-09-03T06:02:50.922Z</time>
      </trkpt>
      <trkpt lat="53.201904" lon="6.556404">
        <ele>1.613356</ele>
        <time>2026-09-03T06:02:52.930Z</time>
      </trkpt>
      <trkpt lat="53.201935" lon="6.556551">
        <ele>1.591583</ele>
        <time>2026-09-03T06:02:54.924Z</time>
      </trkpt>
      <trkpt lat="53.201970" lon="6.556701">
        <ele>1.569093</ele>
        <time>2026-09-03T06:02:56.929Z</time>
      </trkpt>
      <trkpt lat="53.202006" lon="6.556854">
        <ele>1.546128</ele>
        <time>2026-09-03T06:02:58.930Z</time>
      </trkpt>
      <trkpt lat="53.202041" lon="6.557015">
        <ele>1.522199</ele>
        <time>2026-09-03T06:03:00.922Z</time>
      </trkpt>
      <trkpt lat="53.202076" lon="6.557180">
        <ele>1.497744</ele>
        <time>2026-09-03T06:03:02.923Z</time>
      </trkpt>
      <trkpt lat="53.202107" lon="6.557341">
        <ele>1.474118</ele>
        <time>2026-09-03T06:03:04.930Z</time>
      </trkpt>
      <trkpt lat="53.202141" lon="6.557494">
        <ele>1.451319</ele>
        <time>2026-09-03T06:03:06.930Z</time>
      </trkpt>
      <trkpt lat="53.202170" lon="6.557655">
        <ele>1.427831</ele>
        <time>2026-09-03T06:03:08.930Z</time>
      </trkpt>
      <trkpt lat="53.202196" lon="6.557819">
        <ele>1.404129</ele>
        <time>2026-09-03T06:03:10.926Z</time>
      </trkpt>
      <trkpt lat="53.202219" lon="6.557978">
        <ele>1.381277</ele>
        <time>2026-09-03T06:03:12.926Z</time>
      </trkpt>
      <trkpt lat="53.202253" lon="6.558146">
        <ele>1.356503</ele>
        <time>2026-09-03T06:03:14.926Z</time>
      </trkpt>
      <trkpt lat="53.202275" lon="6.558308">
        <ele>1.333296</ele>
        <time>2026-09-03T06:03:16.924Z</time>
      </trkpt>
      <trkpt lat="53.202303" lon="6.558468">
        <ele>1.310008</ele>
        <time>2026-09-03T06:03:18.931Z</time>
      </trkpt>
      <trkpt lat="53.202331" lon="6.558635">
        <ele>1.285780</ele>
        <time>2026-09-03T06:03:20.930Z</time>
      </trkpt>
      <trkpt lat="53.202353" lon="6.558790">
        <ele>1.260184</ele>
        <time>2026-09-03T06:03:22.929Z</time>
      </trkpt>
      <trkpt lat="53.202375" lon="6.558937">
        <ele>1.235481</ele>
        <time>2026-09-03T06:03:24.931Z</time>
      </trkpt>
      <trkpt lat="53.202406" lon="6.559114">
        <ele>1.205416</ele>
        <time>2026-09-03T06:03:27.930Z</time>
      </trkpt>
      <trkpt lat="53.202428" lon="6.559319">
        <ele>1.171461</ele>
        <time>2026-09-03T06:03:31.930Z</time>
      </trkpt>
      <trkpt lat="53.202456" lon="6.559497">
        <ele>1.141457</ele>
        <time>2026-09-03T06:03:34.930Z</time>
      </trkpt>
      <trkpt lat="53.202496" lon="6.559706">
        <ele>1.105686</ele>
        <time>2026-09-03T06:03:37.930Z</time>
      </trkpt>
      <trkpt lat="53.202543" lon="6.559845">
        <ele>1.079662</ele>
        <time>2026-09-03T06:03:39.930Z</time>
      </trkpt>
      <trkpt lat="53.202602" lon="6.559984">
        <ele>1.051888</ele>
        <time>2026-09-03T06:03:41.924Z</time>
      </trkpt>
      <trkpt lat="53.202664" lon="6.560110">
        <ele>1.025303</ele>
        <time>2026-09-03T06:03:43.930Z</time>
      </trkpt>
      <trkpt lat="53.202718" lon="6.560262">
        <ele>0.996491</ele>
        <time>2026-09-03T06:03:45.932Z</time>
      </trkpt>
      <trkpt lat="53.202765" lon="6.560424">
        <ele>0.967144</ele>
        <time>2026-09-03T06:03:47.930Z</time>
      </trkpt>
      <trkpt lat="53.202797" lon="6.560583">
        <ele>0.939798</ele>
        <time>2026-09-03T06:03:49.930Z</time>
      </trkpt>
      <trkpt lat="53.202831" lon="6.560744">
        <ele>0.911966</ele>
        <time>2026-09-03T06:03:51.931Z</time>
      </trkpt>
      <trkpt lat="53.202861" lon="6.560906">
        <ele>0.884321</ele>
        <time>2026-09-03T06:03:53.930Z</time>
      </trkpt>
      <trkpt lat="53.202891" lon="6.561067">
        <ele>0.856832</ele>
        <time>2026-09-03T06:03:55.922Z</time>
      </trkpt>
      <trkpt lat="53.202927" lon="6.561230">
        <ele>0.828508</ele>
        <time>2026-09-03T06:03:57.932Z</time>
      </trkpt>
      <trkpt lat="53.202959" lon="6.561392">
        <ele>0.800698</ele>
        <time>2026-09-03T06:03:59.930Z</time>
      </trkpt>
      <trkpt lat="53.202999" lon="6.561548">
        <ele>0.951124</ele>
        <time>2026-09-03T06:04:01.929Z</time>
      </trkpt>
      <trkpt lat="53.203037" lon="6.561699">
        <ele>1.151453</ele>
        <time>2026-09-03T06:04:03.923Z</time>
      </trkpt>
      <trkpt lat="53.203067" lon="6.561856">
        <ele>1.353016</ele>
        <time>2026-09-03T06:04:05.922Z</time>
      </trkpt>
      <trkpt lat="53.203104" lon="6.562011">
        <ele>1.557098</ele>
        <time>2026-09-03T06:04:07.931Z</time>
      </trkpt>
      <trkpt lat="53.203135" lon="6.562162">
        <ele>1.752334</ele>
        <time>2026-09-03T06:04:09.922Z</time>
      </trkpt>
      <trkpt lat="53.203170" lon="6.562305">
        <ele>1.941277</ele>
        <time>2026-09-03T06:04:11.930Z</time>
      </trkpt>
      <trkpt lat="53.203199" lon="6.562455">
        <ele>2.134064</ele>
        <time>2026-09-03T06:04:13.927Z</time>
      </trkpt>
      <trkpt lat="53.203234" lon="6.562603">
        <ele>2.328681</ele>
        <time>2026-09-03T06:04:15.930Z</time>
      </trkpt>
      <trkpt lat="53.203267" lon="6.562747">
        <ele>2.517259</ele>
        <time>2026-09-03T06:04:17.932Z</time>
      </trkpt>
      <trkpt lat="53.203285" lon="6.562946">
        <ele>2.763416</ele>
        <time>2026-09-03T06:04:20.924Z</time>
      </trkpt>
      <trkpt lat="53.203202" lon="6.563056">
        <ele>2.979811</ele>
        <time>2026-09-03T06:04:23.930Z</time>
      </trkpt>
      <trkpt lat="53.203118" lon="6.563167">
        <ele>3.198565</ele>
        <time>2026-09-03T06:04:26.923Z</time>
      </trkpt>
      <trkpt lat="53.203145" lon="6.563324">
        <ele>3.398351</ele>
        <time>2026-09-03T06:04:29.930Z</time>
      </trkpt>
      <trkpt lat="53.203199" lon="6.563487">
        <ele>3.626180</ele>
        <time>2026-09-03T06:04:32.930Z</time>
      </trkpt>
      <trkpt lat="53.203249" lon="6.563629">
        <ele>3.827648</ele>
        <time>2026-09-03T06:04:35.930Z</time>
      </trkpt>
      <trkpt lat="53.203356" lon="6.563641">
        <ele>4.046633</ele>
        <time>2026-09-03T06:04:38.938Z</time>
      </trkpt>
      <trkpt lat="53.203483" lon="6.563600">
        <ele>4.310769</ele>
        <time>2026-09-03T06:04:41.923Z</time>
      </trkpt>
      <trkpt lat="53.203573" lon="6.563583">
        <ele>4.462264</ele>
        <time>2026-09-03T06:04:43.930Z</time>
      </trkpt>
      <trkpt lat="53.203668" lon="6.563562">
        <ele>4.431706</ele>
        <time>2026-09-03T06:04:45.922Z</time>
      </trkpt>
      <trkpt lat="53.203774" lon="6.563531">
        <ele>4.397390</ele>
        <time>2026-09-03T06:04:47.926Z</time>
      </trkpt>
      <trkpt lat="53.203873" lon="6.563502">
        <ele>4.365339</ele>
        <time>2026-09-03T06:04:49.925Z</time>
      </trkpt>
      <trkpt lat="53.203968" lon="6.563478">
        <ele>4.334700</ele>
        <time>2026-09-03T06:04:51.927Z</time>
      </trkpt>
      <trkpt lat="53.204077" lon="6.563456">
        <ele>4.299690</ele>
        <time>2026-09-03T06:04:53.938Z</time>
      </trkpt>
      <trkpt lat="53.204178" lon="6.563421">
        <ele>4.266796</ele>
        <time>2026-09-03T06:04:55.924Z</time>
      </trkpt>
      <trkpt lat="53.204286" lon="6.563394">
        <ele>4.231973</ele>
        <time>2026-09-03T06:04:57.927Z</time>
      </trkpt>
      <trkpt lat="53.204385" lon="6.563364">
        <ele>4.199889</ele>
        <time>2026-09-03T06:04:59.922Z</time>
      </trkpt>
      <trkpt lat="53.204494" lon="6.563337">
        <ele>4.164750</ele>
        <time>2026-09-03T06:05:01.926Z</time>
      </trkpt>
      <trkpt lat="53.204598" lon="6.563297">
        <ele>4.130718</ele>
        <time>2026-09-03T06:05:03.927Z</time>
      </trkpt>
      <trkpt lat="53.204690" lon="6.563257">
        <ele>4.100403</ele>
        <time>2026-09-03T06:05:05.927Z</time>
      </trkpt>
      <trkpt lat="53.204779" lon="6.563342">
        <ele>4.067708</ele>
        <time>2026-09-03T06:05:09.924Z</time>
      </trkpt>
      <trkpt lat="53.204810" lon="6.563527">
        <ele>4.031017</ele>
        <time>2026-09-03T06:05:13.927Z</time>
      </trkpt>
      <trkpt lat="53.204843" lon="6.563674">
        <ele>4.001033</ele>
        <time>2026-09-03T06:05:17.922Z</time>
      </trkpt>
      <trkpt lat="53.204876" lon="6.563828">
        <ele>3.969795</ele>
        <time>2026-09-03T06:05:21.922Z</time>
      </trkpt>
      <trkpt lat="53.204912" lon="6.563993">
        <ele>3.936255</ele>
        <time>2026-09-03T06:05:24.931Z</time>
      </trkpt>
      <trkpt lat="53.204836" lon="6.564141">
        <ele>3.899021</ele>
        <time>2026-09-03T06:05:27.929Z</time>
      </trkpt>
      <trkpt lat="53.204723" lon="6.564231">
        <ele>3.862978</ele>
        <time>2026-09-03T06:05:30.926Z</time>
      </trkpt>
      <trkpt lat="53.204639" lon="6.564302">
        <ele>3.836367</ele>
        <time>2026-09-03T06:05:32.931Z</time>
      </trkpt>
      <trkpt lat="53.204543" lon="6.564360">
        <ele>3.807512</ele>
        <time>2026-09-03T06:05:34.930Z</time>
      </trkpt>
      <trkpt lat="53.204454" lon="6.564422">
        <ele>3.780256</ele>
        <time>2026-09-03T06:05:36.932Z</time>
      </trkpt>
      <trkpt lat="53.204356" lon="6.564505">
        <ele>3.749197</ele>
        <time>2026-09-03T06:05:38.924Z</time>
      </trkpt>
      <trkpt lat="53.204278" lon="6.564621">
        <ele>3.719674</ele>
        <time>2026-09-03T06:05:40.923Z</time>
      </trkpt>
      <trkpt lat="53.204206" lon="6.564751">
        <ele>3.689700</ele>
        <time>2026-09-03T06:05:42.930Z</time>
      </trkpt>
      <trkpt lat="53.204135" lon="6.564876">
        <ele>3.660537</ele>
        <time>2026-09-03T06:05:44.934Z</time>
      </trkpt>
      <trkpt lat="53.204069" lon="6.565015">
        <ele>3.630509</ele>
        <time>2026-09-03T06:05:46.920Z</time>
      </trkpt>
      <trkpt lat="53.204029" lon="6.565195">
        <ele>3.598007</ele>
        <time>2026-09-03T06:05:48.931Z</time>
      </trkpt>
      <trkpt lat="53.204010" lon="6.565372">
        <ele>3.567565</ele>
        <time>2026-09-03T06:05:50.929Z</time>
      </trkpt>
      <trkpt lat="53.204021" lon="6.565539">
        <ele>3.539124</ele>
        <time>2026-09-03T06:05:52.930Z</time>
      </trkpt>
      <trkpt lat="53.204054" lon="6.565698">
        <ele>3.510636</ele>
        <time>2026-09-03T06:05:54.925Z</time>
      </trkpt>
      <trkpt lat="53.204081" lon="6.565863">
        <ele>3.481680</ele>
        <time>2026-09-03T06:05:56.930Z</time>
      </trkpt>
      <trkpt lat="53.204112" lon="6.566033">
        <ele>3.451597</ele>
        <time>2026-09-03T06:05:58.922Z</time>
      </trkpt>
      <trkpt lat="53.204138" lon="6.566217">
        <ele>3.419592</ele>
        <time>2026-09-03T06:06:00.921Z</time>
      </trkpt>
      <trkpt lat="53.204165" lon="6.566403">
        <ele>3.387193</ele>
        <time>2026-09-03T06:06:02.921Z</time>
      </trkpt>
      <trkpt lat="53.204193" lon="6.566584">
        <ele>3.327070</ele>
        <time>2026-09-03T06:06:04.931Z</time>
      </trkpt>
      <trkpt lat="53.204219" lon="6.566765">
        <ele>3.264964</ele>
        <time>2026-09-03T06:06:06.922Z</time>
      </trkpt>
      <trkpt lat="53.204249" lon="6.566941">
        <ele>3.203907</ele>
        <time>2026-09-03T06:06:08.921Z</time>
      </trkpt>
      <trkpt lat="53.204276" lon="6.567108">
        <ele>3.146190</ele>
        <time>2026-09-03T06:06:10.923Z</time>
      </trkpt>
      <trkpt lat="53.204306" lon="6.567276">
        <ele>3.087695</ele>
        <time>2026-09-03T06:06:12.930Z</time>
      </trkpt>
      <trkpt lat="53.204333" lon="6.567458">
        <ele>3.025133</ele>
        <time>2026-09-03T06:06:14.930Z</time>
      </trkpt>
      <trkpt lat="53.204368" lon="6.567626">
        <ele>2.965783</ele>
        <time>2026-09-03T06:06:16.925Z</time>
      </trkpt>
      <trkpt lat="53.204398" lon="6.567797">
        <ele>2.906329</ele>
        <time>2026-09-03T06:06:18.932Z</time>
      </trkpt>
      <trkpt lat="53.204425" lon="6.567967">
        <ele>2.847645</ele>
        <time>2026-09-03T06:06:20.930Z</time>
      </trkpt>
      <trkpt lat="53.204450" lon="6.568151">
        <ele>2.784691</ele>
        <time>2026-09-03T06:06:22.921Z</time>
      </trkpt>
      <trkpt lat="53.204461" lon="6.568335">
        <ele>2.722991</ele>
        <time>2026-09-03T06:06:25.930Z</time>
      </trkpt>
      <trkpt lat="53.204488" lon="6.568507">
        <ele>2.663662</ele>
        <time>2026-09-03T06:06:28.930Z</time>
      </trkpt>
      <trkpt lat="53.204499" lon="6.568691">
        <ele>2.601962</ele>
        <time>2026-09-03T06:06:31.919Z</time>
      </trkpt>
      <trkpt lat="53.204516" lon="6.568904">
        <ele>2.530263</ele>
        <time>2026-09-03T06:06:34.921Z</time>
      </trkpt>
      <trkpt lat="53.204538" lon="6.569058">
        <ele>2.477438</ele>
        <time>2026-09-03T06:06:36.918Z</time>
      </trkpt>
      <trkpt lat="53.204563" lon="6.569204">
        <ele>2.426771</ele>
        <time>2026-09-03T06:06:38.930Z</time>
      </trkpt>
      <trkpt lat="53.204601" lon="6.569364">
        <ele>2.429323</ele>
        <time>2026-09-03T06:06:40.930Z</time>
      </trkpt>
      <trkpt lat="53.204642" lon="6.569522">
        <ele>2.626136</ele>
        <time>2026-09-03T06:06:42.920Z</time>
      </trkpt>
      <trkpt lat="53.204693" lon="6.569680">
        <ele>2.831284</ele>
        <time>2026-09-03T06:06:44.932Z</time>
      </trkpt>
      <trkpt lat="53.204743" lon="6.569832">
        <ele>3.029495</ele>
        <time>2026-09-03T06:06:46.922Z</time>
      </trkpt>
      <trkpt lat="53.204806" lon="6.569972">
        <ele>3.229643</ele>
        <time>2026-09-03T06:06:48.922Z</time>
      </trkpt>
      <trkpt lat="53.204856" lon="6.570126">
        <ele>3.429860</ele>
        <time>2026-09-03T06:06:50.930Z</time>
      </trkpt>
      <trkpt lat="53.204904" lon="6.570277">
        <ele>3.625252</ele>
        <time>2026-09-03T06:06:52.923Z</time>
      </trkpt>
      <trkpt lat="53.204933" lon="6.570441">
        <ele>3.820700</ele>
        <time>2026-09-03T06:06:54.921Z</time>
      </trkpt>
      <trkpt lat="53.204962" lon="6.570605">
        <ele>4.016147</ele>
        <time>2026-09-03T06:06:56.930Z</time>
      </trkpt>
      <trkpt lat="53.204994" lon="6.570769">
        <ele>4.213292</ele>
        <time>2026-09-03T06:06:58.921Z</time>
      </trkpt>
      <trkpt lat="53.205016" lon="6.570929">
        <ele>4.400927</ele>
        <time>2026-09-03T06:07:00.930Z</time>
      </trkpt>
      <trkpt lat="53.205045" lon="6.571094">
        <ele>4.597470</ele>
        <time>2026-09-03T06:07:02.922Z</time>
      </trkpt>
      <trkpt lat="53.205070" lon="6.571251">
        <ele>4.783152</ele>
        <time>2026-09-03T06:07:04.930Z</time>
      </trkpt>
      <trkpt lat="53.205101" lon="6.571406">
        <ele>4.969929</ele>
        <time>2026-09-03T06:07:06.923Z</time>
      </trkpt>
      <trkpt lat="53.205132" lon="6.571567">
        <ele>5.163224</ele>
        <time>2026-09-03T06:07:08.922Z</time>
      </trkpt>
      <trkpt lat="53.205163" lon="6.571733">
        <ele>5.361967</ele>
        <time>2026-09-03T06:07:10.930Z</time>
      </trkpt>
      <trkpt lat="53.205200" lon="6.571891">
        <ele>5.555869</ele>
        <time>2026-09-03T06:07:12.922Z</time>
      </trkpt>
      <trkpt lat="53.205224" lon="6.572040">
        <ele>5.732224</ele>
        <time>2026-09-03T06:07:14.922Z</time>
      </trkpt>
      <trkpt lat="53.205246" lon="6.572187">
        <ele>5.879967</ele>
        <time>2026-09-03T06:07:16.924Z</time>
      </trkpt>
      <trkpt lat="53.205278" lon="6.572382">
        <ele>6.045860</ele>
        <time>2026-09-03T06:07:19.930Z</time>
      </trkpt>
      <trkpt lat="53.205314" lon="6.572588">
        <ele>6.221930</ele>
        <time>2026-09-03T06:07:22.923Z</time>
      </trkpt>
      <trkpt lat="53.205347" lon="6.572797">
        <ele>6.399272</ele>
        <time>2026-09-03T06:07:25.930Z</time>
      </trkpt>
      <trkpt lat="53.205389" lon="6.573013">
        <ele>6.585604</ele>
        <time>2026-09-03T06:07:28.930Z</time>
      </trkpt>
      <trkpt lat="53.205430" lon="6.573156">
        <ele>6.715685</ele>
        <time>2026-09-03T06:07:30.922Z</time>
      </trkpt>
      <trkpt lat="53.205472" lon="6.573303">
        <ele>6.849317</ele>
        <time>2026-09-03T06:07:32.925Z</time>
      </trkpt>
      <trkpt lat="53.205515" lon="6.573439">
        <ele>6.975497</ele>
        <time>2026-09-03T06:07:34.924Z</time>
      </trkpt>
      <trkpt lat="53.205565" lon="6.573617">
        <ele>7.136809</ele>
        <time>2026-09-03T06:07:37.923Z</time>
      </trkpt>
      <trkpt lat="53.205604" lon="6.573773">
        <ele>7.275508</ele>
        <time>2026-09-03T06:07:42.926Z</time>
      </trkpt>
      <trkpt lat="53.205632" lon="6.573926">
        <ele>7.406772</ele>
        <time>2026-09-03T06:07:55.923Z</time>
      </trkpt>
      <trkpt lat="53.205670" lon="6.574103">
        <ele>7.561046</ele>
        <time>2026-09-03T06:07:59.923Z</time>
      </trkpt>
      <trkpt lat="53.205708" lon="6.574266">
        <ele>7.704559</ele>
        <time>2026-09-03T06:08:02.924Z</time>
      </trkpt>
      <trkpt lat="53.205747" lon="6.574449">
        <ele>7.863930</ele>
        <time>2026-09-03T06:08:05.929Z</time>
      </trkpt>
      <trkpt lat="53.205785" lon="6.574644">
        <ele>8.032180</ele>
        <time>2026-09-03T06:08:08.924Z</time>
      </trkpt>
      <trkpt lat="53.205823" lon="6.574840">
        <ele>8.201211</ele>
        <time>2026-09-03T06:08:11.938Z</time>
      </trkpt>
      <trkpt lat="53.205856" lon="6.575066">
        <ele>8.217708</ele>
        <time>2026-09-03T06:08:14.925Z</time>
      </trkpt>
      <trkpt lat="53.205878" lon="6.575223">
        <ele>8.145663</ele>
        <time>2026-09-03T06:08:16.931Z</time>
      </trkpt>
      <trkpt lat="53.205898" lon="6.575385">
        <ele>8.071757</ele>
        <time>2026-09-03T06:08:18.922Z</time>
      </trkpt>
      <trkpt lat="53.205925" lon="6.575602">
        <ele>7.972727</ele>
        <time>2026-09-03T06:08:21.921Z</time>
      </trkpt>
      <trkpt lat="53.205947" lon="6.575748">
        <ele>7.905459</ele>
        <time>2026-09-03T06:08:23.933Z</time>
      </trkpt>
      <trkpt lat="53.205976" lon="6.575896">
        <ele>7.835881</ele>
        <time>2026-09-03T06:08:25.922Z</time>
      </trkpt>
      <trkpt lat="53.206004" lon="6.576046">
        <ele>7.765679</ele>
        <time>2026-09-03T06:08:27.922Z</time>
      </trkpt>
      <trkpt lat="53.206032" lon="6.576194">
        <ele>7.696330</ele>
        <time>2026-09-03T06:08:29.923Z</time>
      </trkpt>
      <trkpt lat="53.206077" lon="6.576360">
        <ele>7.614915</ele>
        <time>2026-09-03T06:08:31.922Z</time>
      </trkpt>
      <trkpt lat="53.206119" lon="6.576529">
        <ele>7.533160</ele>
        <time>2026-09-03T06:08:33.932Z</time>
      </trkpt>
      <trkpt lat="53.206172" lon="6.576692">
        <ele>7.450289</ele>
        <time>2026-09-03T06:08:35.925Z</time>
      </trkpt>
      <trkpt lat="53.206228" lon="6.576860">
        <ele>7.364382</ele>
        <time>2026-09-03T06:08:37.931Z</time>
      </trkpt>
      <trkpt lat="53.206284" lon="6.577032">
        <ele>7.276909</ele>
        <time>2026-09-03T06:08:39.932Z</time>
      </trkpt>
      <trkpt lat="53.206339" lon="6.577204">
        <ele>7.189790</ele>
        <time>2026-09-03T06:08:41.922Z</time>
      </trkpt>
      <trkpt lat="53.206392" lon="6.577381">
        <ele>7.101371</ele>
        <time>2026-09-03T06:08:43.933Z</time>
      </trkpt>
      <trkpt lat="53.206451" lon="6.577544">
        <ele>7.016274</ele>
        <time>2026-09-03T06:08:45.919Z</time>
      </trkpt>
      <trkpt lat="53.206509" lon="6.577713">
        <ele>6.910940</ele>
        <time>2026-09-03T06:08:47.925Z</time>
      </trkpt>
      <trkpt lat="53.206573" lon="6.577878">
        <ele>6.625325</ele>
        <time>2026-09-03T06:08:49.925Z</time>
      </trkpt>
      <trkpt lat="53.206641" lon="6.578037">
        <ele>6.341460</ele>
        <time>2026-09-03T06:08:51.923Z</time>
      </trkpt>
      <trkpt lat="53.206716" lon="6.578199">
        <ele>6.043965</ele>
        <time>2026-09-03T06:08:53.930Z</time>
      </trkpt>
      <trkpt lat="53.206800" lon="6.578344">
        <ele>5.750867</ele>
        <time>2026-09-03T06:08:55.926Z</time>
      </trkpt>
      <trkpt lat="53.206887" lon="6.578493">
        <ele>5.448530</ele>
        <time>2026-09-03T06:08:57.930Z</time>
      </trkpt>
      <trkpt lat="53.206981" lon="6.578639">
        <ele>5.137088</ele>
        <time>2026-09-03T06:08:59.924Z</time>
      </trkpt>
      <trkpt lat="53.207086" lon="6.578773">
        <ele>4.816488</ele>
        <time>2026-09-03T06:09:01.923Z</time>
      </trkpt>
      <trkpt lat="53.207186" lon="6.578919">
        <ele>4.494238</ele>
        <time>2026-09-03T06:09:03.926Z</time>
      </trkpt>
      <trkpt lat="53.207294" lon="6.579058">
        <ele>4.163442</ele>
        <time>2026-09-03T06:09:05.930Z</time>
      </trkpt>
      <trkpt lat="53.207413" lon="6.579198">
        <ele>3.810301</ele>
        <time>2026-09-03T06:09:07.925Z</time>
      </trkpt>
      <trkpt lat="53.207526" lon="6.579347">
        <ele>3.461005</ele>
        <time>2026-09-03T06:09:09.929Z</time>
      </trkpt>
      <trkpt lat="53.207644" lon="6.579485">
        <ele>3.111519</ele>
        <time>2026-09-03T06:09:11.923Z</time>
      </trkpt>
      <trkpt lat="53.207762" lon="6.579626">
        <ele>2.759515</ele>
        <time>2026-09-03T06:09:13.930Z</time>
      </trkpt>
      <trkpt lat="53.207858" lon="6.579776">
        <ele>2.656937</ele>
        <time>2026-09-03T06:09:15.922Z</time>
      </trkpt>
      <trkpt lat="53.207956" lon="6.579907">
        <ele>2.845828</ele>
        <time>2026-09-03T06:09:17.930Z</time>
      </trkpt>
      <trkpt lat="53.208042" lon="6.580016">
        <ele>3.008287</ele>
        <time>2026-09-03T06:09:19.931Z</time>
      </trkpt>
      <trkpt lat="53.208121" lon="6.580130">
        <ele>3.165397</ele>
        <time>2026-09-03T06:09:21.924Z</time>
      </trkpt>
      <trkpt lat="53.208199" lon="6.580244">
        <ele>3.321372</ele>
        <time>2026-09-03T06:09:23.930Z</time>
      </trkpt>
      <trkpt lat="53.208270" lon="6.580369">
        <ele>3.476618</ele>
        <time>2026-09-03T06:09:25.930Z</time>
      </trkpt>
      <trkpt lat="53.208337" lon="6.580491">
        <ele>3.625783</ele>
        <time>2026-09-03T06:09:27.930Z</time>
      </trkpt>
      <trkpt lat="53.208399" lon="6.580618">
        <ele>3.773434</ele>
        <time>2026-09-03T06:09:29.922Z</time>
      </trkpt>
      <trkpt lat="53.208455" lon="6.580748">
        <ele>3.917739</ele>
        <time>2026-09-03T06:09:31.933Z</time>
      </trkpt>
      <trkpt lat="53.208507" lon="6.580879">
        <ele>4.059364</ele>
        <time>2026-09-03T06:09:33.926Z</time>
      </trkpt>
      <trkpt lat="53.208551" lon="6.581015">
        <ele>4.198659</ele>
        <time>2026-09-03T06:09:35.929Z</time>
      </trkpt>
      <trkpt lat="53.208598" lon="6.581157">
        <ele>4.344863</ele>
        <time>2026-09-03T06:09:37.947Z</time>
      </trkpt>
      <trkpt lat="53.208640" lon="6.581300">
        <ele>4.488389</ele>
        <time>2026-09-03T06:09:39.921Z</time>
      </trkpt>
      <trkpt lat="53.208687" lon="6.581444">
        <ele>4.636173</ele>
        <time>2026-09-03T06:09:41.931Z</time>
      </trkpt>
      <trkpt lat="53.208728" lon="6.581602">
        <ele>4.791344</ele>
        <time>2026-09-03T06:09:43.926Z</time>
      </trkpt>
      <trkpt lat="53.208764" lon="6.581759">
        <ele>4.942839</ele>
        <time>2026-09-03T06:09:45.924Z</time>
      </trkpt>
      <trkpt lat="53.208804" lon="6.581909">
        <ele>5.090804</ele>
        <time>2026-09-03T06:09:47.930Z</time>
      </trkpt>
      <trkpt lat="53.208870" lon="6.582027">
        <ele>5.236300</ele>
        <time>2026-09-03T06:09:49.925Z</time>
      </trkpt>
      <trkpt lat="53.208955" lon="6.582093">
        <ele>5.274890</ele>
        <time>2026-09-03T06:09:51.931Z</time>
      </trkpt>
      <trkpt lat="53.209082" lon="6.582111">
        <ele>5.263878</ele>
        <time>2026-09-03T06:09:54.930Z</time>
      </trkpt>
      <trkpt lat="53.209176" lon="6.582059">
        <ele>5.255321</ele>
        <time>2026-09-03T06:09:57.931Z</time>
      </trkpt>
      <trkpt lat="53.209261" lon="6.582137">
        <ele>5.246941</ele>
        <time>2026-09-03T06:10:03.923Z</time>
      </trkpt>
      <trkpt lat="53.209321" lon="6.582295">
        <ele>5.237260</ele>
        <time>2026-09-03T06:10:06.925Z</time>
      </trkpt>
      <trkpt lat="53.209387" lon="6.582478">
        <ele>5.226206</ele>
        <time>2026-09-03T06:10:09.930Z</time>
      </trkpt>
      <trkpt lat="53.209436" lon="6.582608">
        <ele>5.218257</ele>
        <time>2026-09-03T06:10:11.930Z</time>
      </trkpt>
      <trkpt lat="53.209503" lon="6.582799">
        <ele>5.206803</ele>
        <time>2026-09-03T06:10:14.930Z</time>
      </trkpt>
      <trkpt lat="53.209559" lon="6.582995">
        <ele>5.195566</ele>
        <time>2026-09-03T06:10:17.930Z</time>
      </trkpt>
      <trkpt lat="53.209625" lon="6.583145">
        <ele>5.185934</ele>
        <time>2026-09-03T06:10:20.932Z</time>
      </trkpt>
      <trkpt lat="53.209732" lon="6.583193">
        <ele>5.176361</ele>
        <time>2026-09-03T06:10:23.930Z</time>
      </trkpt>
      <trkpt lat="53.209842" lon="6.583123">
        <ele>5.166190</ele>
        <time>2026-09-03T06:10:26.919Z</time>
      </trkpt>
      <trkpt lat="53.209930" lon="6.583059">
        <ele>5.157896</ele>
        <time>2026-09-03T06:10:28.929Z</time>
      </trkpt>
      <trkpt lat="53.210017" lon="6.582986">
        <ele>5.149483</ele>
        <time>2026-09-03T06:10:30.922Z</time>
      </trkpt>
      <trkpt lat="53.210107" lon="6.582921">
        <ele>5.141010</ele>
        <time>2026-09-03T06:10:32.918Z</time>
      </trkpt>
      <trkpt lat="53.210194" lon="6.582853">
        <ele>5.132711</ele>
        <time>2026-09-03T06:10:34.923Z</time>
      </trkpt>
      <trkpt lat="53.210277" lon="6.582788">
        <ele>5.125267</ele>
        <time>2026-09-03T06:10:36.919Z</time>
      </trkpt>
      <trkpt lat="53.210396" lon="6.582693">
        <ele>5.135227</ele>
        <time>2026-09-03T06:10:39.923Z</time>
      </trkpt>
      <trkpt lat="53.210521" lon="6.582599">
        <ele>5.145578</ele>
        <time>2026-09-03T06:10:42.930Z</time>
      </trkpt>
      <trkpt lat="53.210606" lon="6.582534">
        <ele>5.152638</ele>
        <time>2026-09-03T06:10:44.933Z</time>
      </trkpt>
      <trkpt lat="53.210700" lon="6.582465">
        <ele>5.160391</ele>
        <time>2026-09-03T06:10:46.930Z</time>
      </trkpt>
      <trkpt lat="53.210820" lon="6.582371">
        <ele>5.170400</ele>
        <time>2026-09-03T06:10:49.925Z</time>
      </trkpt>
      <trkpt lat="53.210916" lon="6.582311">
        <ele>5.178140</ele>
        <time>2026-09-03T06:10:51.930Z</time>
      </trkpt>
      <trkpt lat="53.211015" lon="6.582248">
        <ele>5.186140</ele>
        <time>2026-09-03T06:10:53.928Z</time>
      </trkpt>
      <trkpt lat="53.211107" lon="6.582165">
        <ele>5.194036</ele>
        <time>2026-09-03T06:10:55.920Z</time>
      </trkpt>
      <trkpt lat="53.211198" lon="6.582089">
        <ele>5.201719</ele>
        <time>2026-09-03T06:10:57.925Z</time>
      </trkpt>
      <trkpt lat="53.211282" lon="6.582023">
        <ele>5.208729</ele>
        <time>2026-09-03T06:10:59.925Z</time>
      </trkpt>
      <trkpt lat="53.211369" lon="6.581961">
        <ele>5.215872</ele>
        <time>2026-09-03T06:11:01.932Z</time>
      </trkpt>
      <trkpt lat="53.211458" lon="6.581898">
        <ele>5.223171</ele>
        <time>2026-09-03T06:11:03.924Z</time>
      </trkpt>
      <trkpt lat="53.211544" lon="6.581824">
        <ele>5.230476</ele>
        <time>2026-09-03T06:11:05.931Z</time>
      </trkpt>
      <trkpt lat="53.211628" lon="6.581758">
        <ele>5.237486</ele>
        <time>2026-09-03T06:11:07.933Z</time>
      </trkpt>
      <trkpt lat="53.211719" lon="6.581694">
        <ele>5.244942</ele>
        <time>2026-09-03T06:11:09.932Z</time>
      </trkpt>
      <trkpt lat="53.211808" lon="6.581622">
        <ele>5.252410</ele>
        <time>2026-09-03T06:11:11.930Z</time>
      </trkpt>
      <trkpt lat="53.211896" lon="6.581554">
        <ele>5.259732</ele>
        <time>2026-09-03T06:11:13.921Z</time>
      </trkpt>
      <trkpt lat="53.211982" lon="6.581478">
        <ele>5.252322</ele>
        <time>2026-09-03T06:11:15.923Z</time>
      </trkpt>
      <trkpt lat="53.212072" lon="6.581401">
        <ele>5.241839</ele>
        <time>2026-09-03T06:11:17.930Z</time>
      </trkpt>
      <trkpt lat="53.212170" lon="6.581337">
        <ele>5.230931</ele>
        <time>2026-09-03T06:11:19.924Z</time>
      </trkpt>
      <trkpt lat="53.212291" lon="6.581241">
        <ele>5.217044</ele>
        <time>2026-09-03T06:11:22.926Z</time>
      </trkpt>
      <trkpt lat="53.212378" lon="6.581172">
        <ele>5.207059</ele>
        <time>2026-09-03T06:11:24.930Z</time>
      </trkpt>
      <trkpt lat="53.212465" lon="6.581090">
        <ele>5.196703</ele>
        <time>2026-09-03T06:11:26.930Z</time>
      </trkpt>
      <trkpt lat="53.212562" lon="6.581011">
        <ele>5.185515</ele>
        <time>2026-09-03T06:11:28.922Z</time>
      </trkpt>
      <trkpt lat="53.212648" lon="6.580946">
        <ele>5.175730</ele>
        <time>2026-09-03T06:11:30.921Z</time>
      </trkpt>
      <trkpt lat="53.212744" lon="6.580859">
        <ele>5.164407</ele>
        <time>2026-09-03T06:11:32.921Z</time>
      </trkpt>
      <trkpt lat="53.212826" lon="6.580788">
        <ele>5.154832</ele>
        <time>2026-09-03T06:11:34.930Z</time>
      </trkpt>
      <trkpt lat="53.212920" lon="6.580710">
        <ele>5.143950</ele>
        <time>2026-09-03T06:11:36.919Z</time>
      </trkpt>
      <trkpt lat="53.213013" lon="6.580634">
        <ele>5.133217</ele>
        <time>2026-09-03T06:11:38.930Z</time>
      </trkpt>
      <trkpt lat="53.213097" lon="6.580566">
        <ele>5.123540</ele>
        <time>2026-09-03T06:11:40.921Z</time>
      </trkpt>
      <trkpt lat="53.213181" lon="6.580504">
        <ele>5.114020</ele>
        <time>2026-09-03T06:11:42.926Z</time>
      </trkpt>
      <trkpt lat="53.213260" lon="6.580427">
        <ele>5.104537</ele>
        <time>2026-09-03T06:11:44.927Z</time>
      </trkpt>
      <trkpt lat="53.213348" lon="6.580338">
        <ele>5.093872</ele>
        <time>2026-09-03T06:11:46.922Z</time>
      </trkpt>
      <trkpt lat="53.213426" lon="6.580256">
        <ele>5.084318</ele>
        <time>2026-09-03T06:11:48.924Z</time>
      </trkpt>
      <trkpt lat="53.213513" lon="6.580184">
        <ele>5.075552</ele>
        <time>2026-09-03T06:11:50.930Z</time>
      </trkpt>
      <trkpt lat="53.213593" lon="6.580101">
        <ele>5.148614</ele>
        <time>2026-09-03T06:11:52.930Z</time>
      </trkpt>
      <trkpt lat="53.213685" lon="6.580009">
        <ele>5.231801</ele>
        <time>2026-09-03T06:11:54.922Z</time>
      </trkpt>
      <trkpt lat="53.213802" lon="6.579889">
        <ele>5.338316</ele>
        <time>2026-09-03T06:11:57.927Z</time>
      </trkpt>
      <trkpt lat="53.213907" lon="6.579775">
        <ele>5.435472</ele>
        <time>2026-09-03T06:12:00.930Z</time>
      </trkpt>
      <trkpt lat="53.214016" lon="6.579676">
        <ele>5.531727</ele>
        <time>2026-09-03T06:12:03.924Z</time>
      </trkpt>
      <trkpt lat="53.214118" lon="6.579568">
        <ele>5.625418</ele>
        <time>2026-09-03T06:12:06.923Z</time>
      </trkpt>
      <trkpt lat="53.214192" lon="6.579445">
        <ele>5.706413</ele>
        <time>2026-09-03T06:12:09.924Z</time>
      </trkpt>
      <trkpt lat="53.214158" lon="6.579278">
        <ele>5.788352</ele>
        <time>2026-09-03T06:12:12.924Z</time>
      </trkpt>
      <trkpt lat="53.214093" lon="6.579121">
        <ele>5.877019</ele>
        <time>2026-09-03T06:12:15.924Z</time>
      </trkpt>
      <trkpt lat="53.214024" lon="6.578954">
        <ele>5.971271</ele>
        <time>2026-09-03T06:12:18.925Z</time>
      </trkpt>
      <trkpt lat="53.213950" lon="6.578798">
        <ele>6.063722</ele>
        <time>2026-09-03T06:12:21.925Z</time>
      </trkpt>
      <trkpt lat="53.213888" lon="6.578642">
        <ele>6.150699</ele>
        <time>2026-09-03T06:12:24.925Z</time>
      </trkpt>
      <trkpt lat="53.213828" lon="6.578482">
        <ele>6.238397</ele>
        <time>2026-09-03T06:12:27.926Z</time>
      </trkpt>
      <trkpt lat="53.213774" lon="6.578360">
        <ele>6.308872</ele>
        <time>2026-09-03T06:12:30.922Z</time>
      </trkpt>
      <trkpt lat="53.213714" lon="6.578223">
        <ele>6.387719</ele>
        <time>2026-09-03T06:12:35.923Z</time>
      </trkpt>
      <trkpt lat="53.213638" lon="6.578103">
        <ele>6.468858</ele>
        <time>2026-09-03T06:12:39.923Z</time>
      </trkpt>
      <trkpt lat="53.213595" lon="6.577920">
        <ele>6.484876</ele>
        <time>2026-09-03T06:12:43.924Z</time>
      </trkpt>
      <trkpt lat="53.213590" lon="6.577723">
        <ele>6.500235</ele>
        <time>2026-09-03T06:12:47.923Z</time>
      </trkpt>
      <trkpt lat="53.213567" lon="6.577518">
        <ele>6.516481</ele>
        <time>2026-09-03T06:12:51.924Z</time>
      </trkpt>
      <trkpt lat="53.213529" lon="6.577377">
        <ele>6.528526</ele>
        <time>2026-09-03T06:12:54.924Z</time>
      </trkpt>
      <trkpt lat="53.213470" lon="6.577256">
        <ele>6.540680</ele>
        <time>2026-09-03T06:12:57.922Z</time>
      </trkpt>
      <trkpt lat="53.213392" lon="6.577124">
        <ele>6.555126</ele>
        <time>2026-09-03T06:13:00.923Z</time>
      </trkpt>
      <trkpt lat="53.213314" lon="6.576990">
        <ele>6.569682</ele>
        <time>2026-09-03T06:13:03.923Z</time>
      </trkpt>
      <trkpt lat="53.213231" lon="6.576863">
        <ele>6.584326</ele>
        <time>2026-09-03T06:13:06.938Z</time>
      </trkpt>
      <trkpt lat="53.213151" lon="6.576745">
        <ele>6.598210</ele>
        <time>2026-09-03T06:13:09.924Z</time>
      </trkpt>
      <trkpt lat="53.213070" lon="6.576627">
        <ele>6.612193</ele>
        <time>2026-09-03T06:13:12.924Z</time>
      </trkpt>
      <trkpt lat="53.213010" lon="6.576494">
        <ele>6.625164</ele>
        <time>2026-09-03T06:13:15.926Z</time>
      </trkpt>
      <trkpt lat="53.212959" lon="6.576308">
        <ele>6.641099</ele>
        <time>2026-09-03T06:13:18.928Z</time>
      </trkpt>
      <trkpt lat="53.212952" lon="6.576122">
        <ele>6.655616</ele>
        <time>2026-09-03T06:13:21.925Z</time>
      </trkpt>
      <trkpt lat="53.212941" lon="6.575957">
        <ele>6.668549</ele>
        <time>2026-09-03T06:13:24.938Z</time>
      </trkpt>
      <trkpt lat="53.212932" lon="6.575792">
        <ele>6.681455</ele>
        <time>2026-09-03T06:13:27.922Z</time>
      </trkpt>
      <trkpt lat="53.212975" lon="6.575639">
        <ele>6.694620</ele>
        <time>2026-09-03T06:13:33.925Z</time>
      </trkpt>
      <trkpt lat="53.212916" lon="6.575480">
        <ele>6.731368</ele>
        <time>2026-09-03T06:13:38.922Z</time>
      </trkpt>
      <trkpt lat="53.212910" lon="6.575296">
        <ele>6.803380</ele>
        <time>2026-09-03T06:13:42.926Z</time>
      </trkpt>
      <trkpt lat="53.212906" lon="6.575142">
        <ele>6.863618</ele>
        <time>2026-09-03T06:13:46.924Z</time>
      </trkpt>
      <trkpt lat="53.212906" lon="6.574962">
        <ele>6.933960</ele>
        <time>2026-09-03T06:13:50.926Z</time>
      </trkpt>
      <trkpt lat="53.212883" lon="6.574785">
        <ele>7.004739</ele>
        <time>2026-09-03T06:13:54.921Z</time>
      </trkpt>
      <trkpt lat="53.212851" lon="6.574643">
        <ele>7.064031</ele>
        <time>2026-09-03T06:13:58.929Z</time>
      </trkpt>
      <trkpt lat="53.212899" lon="6.574500">
        <ele>7.128094</ele>
        <time>2026-09-03T06:14:03.929Z</time>
      </trkpt>
      <trkpt lat="53.212998" lon="6.574444">
        <ele>7.196304</ele>
        <time>2026-09-03T06:14:06.930Z</time>
      </trkpt>
      <trkpt lat="53.213105" lon="6.574377">
        <ele>7.270877</ele>
        <time>2026-09-03T06:14:09.930Z</time>
      </trkpt>
      <trkpt lat="53.213212" lon="6.574295">
        <ele>7.347705</ele>
        <time>2026-09-03T06:14:12.919Z</time>
      </trkpt>
      <trkpt lat="53.213301" lon="6.574224">
        <ele>7.412071</ele>
        <time>2026-09-03T06:14:15.919Z</time>
      </trkpt>
      <trkpt lat="53.213390" lon="6.574145">
        <ele>7.477845</ele>
        <time>2026-09-03T06:14:19.930Z</time>
      </trkpt>
      <trkpt lat="53.213595" lon="6.574018">
        <ele>7.620532</ele>
        <time>2026-09-03T06:15:25.922Z</time>
      </trkpt>
      <trkpt lat="53.213680" lon="6.573927">
        <ele>7.686421</ele>
        <time>2026-09-03T06:15:28.922Z</time>
      </trkpt>
      <trkpt lat="53.213764" lon="6.573816">
        <ele>7.756324</ele>
        <time>2026-09-03T06:15:31.930Z</time>
      </trkpt>
      <trkpt lat="53.213857" lon="6.573703">
        <ele>7.831378</ele>
        <time>2026-09-03T06:15:34.924Z</time>
      </trkpt>
      <trkpt lat="53.213964" lon="6.573588">
        <ele>7.942756</ele>
        <time>2026-09-03T06:15:37.923Z</time>
      </trkpt>
      <trkpt lat="53.214043" lon="6.573503">
        <ele>8.051060</ele>
        <time>2026-09-03T06:15:39.923Z</time>
      </trkpt>
      <trkpt lat="53.214156" lon="6.573376">
        <ele>8.208032</ele>
        <time>2026-09-03T06:15:42.923Z</time>
      </trkpt>
      <trkpt lat="53.214230" lon="6.573287">
        <ele>8.313128</ele>
        <time>2026-09-03T06:15:44.922Z</time>
      </trkpt>
      <trkpt lat="53.214308" lon="6.573212">
        <ele>8.416855</ele>
        <time>2026-09-03T06:15:46.925Z</time>
      </trkpt>
      <trkpt lat="53.214398" lon="6.573081">
        <ele>8.554444</ele>
        <time>2026-09-03T06:15:49.923Z</time>
      </trkpt>
      <trkpt lat="53.214480" lon="6.572963">
        <ele>8.679190</ele>
        <time>2026-09-03T06:15:52.922Z</time>
      </trkpt>
      <trkpt lat="53.214516" lon="6.572792">
        <ele>8.804279</ele>
        <time>2026-09-03T06:15:55.922Z</time>
      </trkpt>
      <trkpt lat="53.214431" lon="6.572620">
        <ele>8.958178</ele>
        <time>2026-09-03T06:15:58.923Z</time>
      </trkpt>
      <trkpt lat="53.214372" lon="6.572489">
        <ele>9.071298</ele>
        <time>2026-09-03T06:16:00.922Z</time>
      </trkpt>
      <trkpt lat="53.214308" lon="6.572356">
        <ele>9.189045</ele>
        <time>2026-09-03T06:16:02.923Z</time>
      </trkpt>
      <trkpt lat="53.214249" lon="6.572216">
        <ele>9.307188</ele>
        <time>2026-09-03T06:16:04.922Z</time>
      </trkpt>
      <trkpt lat="53.214188" lon="6.572065">
        <ele>9.432890</ele>
        <time>2026-09-03T06:16:06.922Z</time>
      </trkpt>
      <trkpt lat="53.214126" lon="6.571913">
        <ele>9.559810</ele>
        <time>2026-09-03T06:16:08.923Z</time>
      </trkpt>
      <trkpt lat="53.214064" lon="6.571758">
        <ele>9.688446</ele>
        <time>2026-09-03T06:16:10.923Z</time>
      </trkpt>
      <trkpt lat="53.214002" lon="6.571588">
        <ele>9.825811</ele>
        <time>2026-09-03T06:16:12.924Z</time>
      </trkpt>
      <trkpt lat="53.213951" lon="6.571433">
        <ele>9.947863</ele>
        <time>2026-09-03T06:16:14.920Z</time>
      </trkpt>
      <trkpt lat="53.213891" lon="6.571276">
        <ele>9.790454</ele>
        <time>2026-09-03T06:16:16.923Z</time>
      </trkpt>
      <trkpt lat="53.213843" lon="6.571120">
        <ele>9.637127</ele>
        <time>2026-09-03T06:16:18.922Z</time>
      </trkpt>
      <trkpt lat="53.213796" lon="6.570972">
        <ele>9.490676</ele>
        <time>2026-09-03T06:16:20.927Z</time>
      </trkpt>
      <trkpt lat="53.213748" lon="6.570815">
        <ele>9.336571</ele>
        <time>2026-09-03T06:16:22.923Z</time>
      </trkpt>
      <trkpt lat="53.213703" lon="6.570656">
        <ele>9.182829</ele>
        <time>2026-09-03T06:16:24.924Z</time>
      </trkpt>
      <trkpt lat="53.213662" lon="6.570485">
        <ele>9.021801</ele>
        <time>2026-09-03T06:16:26.923Z</time>
      </trkpt>
      <trkpt lat="53.213626" lon="6.570301">
        <ele>8.852577</ele>
        <time>2026-09-03T06:16:28.918Z</time>
      </trkpt>
      <trkpt lat="53.213652" lon="6.570080">
        <ele>8.655682</ele>
        <time>2026-09-03T06:16:31.922Z</time>
      </trkpt>
      <trkpt lat="53.213700" lon="6.569936">
        <ele>8.511606</ele>
        <time>2026-09-03T06:16:33.922Z</time>
      </trkpt>
      <trkpt lat="53.213747" lon="6.569773">
        <ele>8.353450</ele>
        <time>2026-09-03T06:16:35.922Z</time>
      </trkpt>
      <trkpt lat="53.213749" lon="6.569601">
        <ele>8.203057</ele>
        <time>2026-09-03T06:16:37.922Z</time>
      </trkpt>
      <trkpt lat="53.213717" lon="6.569414">
        <ele>8.033035</ele>
        <time>2026-09-03T06:16:39.925Z</time>
      </trkpt>
      <trkpt lat="53.213652" lon="6.569267">
        <ele>7.873288</ele>
        <time>2026-09-03T06:16:41.923Z</time>
      </trkpt>
      <trkpt lat="53.213575" lon="6.569138">
        <ele>7.714059</ele>
        <time>2026-09-03T06:16:43.923Z</time>
      </trkpt>
      <trkpt lat="53.213485" lon="6.569045">
        <ele>7.559551</ele>
        <time>2026-09-03T06:16:45.924Z</time>
      </trkpt>
      <trkpt lat="53.213386" lon="6.568995">
        <ele>7.408558</ele>
        <time>2026-09-03T06:16:47.921Z</time>
      </trkpt>
      <trkpt lat="53.213293" lon="6.568946">
        <ele>7.355434</ele>
        <time>2026-09-03T06:16:49.924Z</time>
      </trkpt>
      <trkpt lat="53.213233" lon="6.568824">
        <ele>7.428764</ele>
        <time>2026-09-03T06:16:51.922Z</time>
      </trkpt>
      <trkpt lat="53.213194" lon="6.568662">
        <ele>7.509866</ele>
        <time>2026-09-03T06:16:54.924Z</time>
      </trkpt>
      <trkpt lat="53.213241" lon="6.568516">
        <ele>7.586861</ele>
        <time>2026-09-03T06:16:57.925Z</time>
      </trkpt>
      <trkpt lat="53.213348" lon="6.568429">
        <ele>7.679172</ele>
        <time>2026-09-03T06:17:00.925Z</time>
      </trkpt>
      <trkpt lat="53.213469" lon="6.568360">
        <ele>7.778349</ele>
        <time>2026-09-03T06:17:03.922Z</time>
      </trkpt>
      <trkpt lat="53.213575" lon="6.568300">
        <ele>7.865165</ele>
        <time>2026-09-03T06:17:06.919Z</time>
      </trkpt>
      <trkpt lat="53.213674" lon="6.568234">
        <ele>7.947849</ele>
        <time>2026-09-03T06:17:09.921Z</time>
      </trkpt>
      <trkpt lat="53.213782" lon="6.568174">
        <ele>8.036135</ele>
        <time>2026-09-03T06:17:12.920Z</time>
      </trkpt>
      <trkpt lat="53.213880" lon="6.568139">
        <ele>8.113870</ele>
        <time>2026-09-03T06:17:15.929Z</time>
      </trkpt>
      <trkpt lat="53.213990" lon="6.568097">
        <ele>8.201395</ele>
        <time>2026-09-03T06:17:18.922Z</time>
      </trkpt>
      <trkpt lat="53.214117" lon="6.568061">
        <ele>8.301313</ele>
        <time>2026-09-03T06:17:21.921Z</time>
      </trkpt>
      <trkpt lat="53.214241" lon="6.568038">
        <ele>8.398088</ele>
        <time>2026-09-03T06:17:24.922Z</time>
      </trkpt>
      <trkpt lat="53.214356" lon="6.568028">
        <ele>8.487410</ele>
        <time>2026-09-03T06:17:27.922Z</time>
      </trkpt>
      <trkpt lat="53.214467" lon="6.568006">
        <ele>8.574113</ele>
        <time>2026-09-03T06:17:30.922Z</time>
      </trkpt>
      <trkpt lat="53.214580" lon="6.567974">
        <ele>8.663015</ele>
        <time>2026-09-03T06:17:33.922Z</time>
      </trkpt>
      <trkpt lat="53.214701" lon="6.567920">
        <ele>8.700072</ele>
        <time>2026-09-03T06:17:36.925Z</time>
      </trkpt>
      <trkpt lat="53.214800" lon="6.567875">
        <ele>8.661711</ele>
        <time>2026-09-03T06:17:39.916Z</time>
      </trkpt>
      <trkpt lat="53.214896" lon="6.567817">
        <ele>8.623542</ele>
        <time>2026-09-03T06:17:43.922Z</time>
      </trkpt>
      <trkpt lat="53.214997" lon="6.567766">
        <ele>8.584092</ele>
        <time>2026-09-03T06:17:47.921Z</time>
      </trkpt>
      <trkpt lat="53.215089" lon="6.567700">
        <ele>8.546656</ele>
        <time>2026-09-03T06:17:50.922Z</time>
      </trkpt>
      <trkpt lat="53.215178" lon="6.567638">
        <ele>8.510602</ele>
        <time>2026-09-03T06:17:53.928Z</time>
      </trkpt>
      <trkpt lat="53.215276" lon="6.567559">
        <ele>8.469917</ele>
        <time>2026-09-03T06:17:56.924Z</time>
      </trkpt>
      <trkpt lat="53.215382" lon="6.567506">
        <ele>8.428547</ele>
        <time>2026-09-03T06:17:59.922Z</time>
      </trkpt>
      <trkpt lat="53.215463" lon="6.567416">
        <ele>8.392173</ele>
        <time>2026-09-03T06:18:02.930Z</time>
      </trkpt>
      <trkpt lat="53.215447" lon="6.567246">
        <ele>8.353646</ele>
        <time>2026-09-03T06:18:05.929Z</time>
      </trkpt>
      <trkpt lat="53.215404" lon="6.567062">
        <ele>8.309426</ele>
        <time>2026-09-03T06:18:08.924Z</time>
      </trkpt>
      <trkpt lat="53.215362" lon="6.566876">
        <ele>8.264922</ele>
        <time>2026-09-03T06:18:11.931Z</time>
      </trkpt>
      <trkpt lat="53.215325" lon="6.566696">
        <ele>8.222315</ele>
        <time>2026-09-03T06:18:14.922Z</time>
      </trkpt>
      <trkpt lat="53.215292" lon="6.566518">
        <ele>8.180598</ele>
        <time>2026-09-03T06:18:17.924Z</time>
      </trkpt>
      <trkpt lat="53.215268" lon="6.566373">
        <ele>8.146918</ele>
        <time>2026-09-03T06:18:20.924Z</time>
      </trkpt>
      <trkpt lat="53.215312" lon="6.566226">
        <ele>8.110125</ele>
        <time>2026-09-03T06:18:26.925Z</time>
      </trkpt>
      <trkpt lat="53.215409" lon="6.566154">
        <ele>8.070438</ele>
        <time>2026-09-03T06:18:29.921Z</time>
      </trkpt>
      <trkpt lat="53.215524" lon="6.566070">
        <ele>8.026944</ele>
        <time>2026-09-03T06:18:32.938Z</time>
      </trkpt>
      <trkpt lat="53.215629" lon="6.565966">
        <ele>7.987936</ele>
        <time>2026-09-03T06:18:35.925Z</time>
      </trkpt>
      <trkpt lat="53.215735" lon="6.565892">
        <ele>7.951225</ele>
        <time>2026-09-03T06:18:38.927Z</time>
      </trkpt>
      <trkpt lat="53.215841" lon="6.565821">
        <ele>7.914732</ele>
        <time>2026-09-03T06:18:41.924Z</time>
      </trkpt>
      <trkpt lat="53.215936" lon="6.565755">
        <ele>7.881854</ele>
        <time>2026-09-03T06:18:44.925Z</time>
      </trkpt>
      <trkpt lat="53.216030" lon="6.565685">
        <ele>7.848967</ele>
        <time>2026-09-03T06:18:48.922Z</time>
      </trkpt>
      <trkpt lat="53.216125" lon="6.565676">
        <ele>7.818563</ele>
        <time>2026-09-03T06:18:58.923Z</time>
      </trkpt>
      <trkpt lat="53.216217" lon="6.565614">
        <ele>7.786862</ele>
        <time>2026-09-03T06:19:03.923Z</time>
      </trkpt>
      <trkpt lat="53.216312" lon="6.565563">
        <ele>7.754977</ele>
        <time>2026-09-03T06:19:07.923Z</time>
      </trkpt>
      <trkpt lat="53.216413" lon="6.565485">
        <ele>7.719420</ele>
        <time>2026-09-03T06:19:12.925Z</time>
      </trkpt>
      <trkpt lat="53.216500" lon="6.565433">
        <ele>7.689894</ele>
        <time>2026-09-03T06:19:17.923Z</time>
      </trkpt>
      <trkpt lat="53.216594" lon="6.565382">
        <ele>7.658312</ele>
        <time>2026-09-03T06:19:22.920Z</time>
      </trkpt>
      <trkpt lat="53.216682" lon="6.565317">
        <ele>7.627566</ele>
        <time>2026-09-03T06:19:26.925Z</time>
      </trkpt>
      <trkpt lat="53.216764" lon="6.565248">
        <ele>7.598226</ele>
        <time>2026-09-03T06:19:30.923Z</time>
      </trkpt>
      <trkpt lat="53.216848" lon="6.565171">
        <ele>7.567608</ele>
        <time>2026-09-03T06:19:34.921Z</time>
      </trkpt>
      <trkpt lat="53.216940" lon="6.565086">
        <ele>7.534012</ele>
        <time>2026-09-03T06:19:38.924Z</time>
      </trkpt>
      <trkpt lat="53.217038" lon="6.564995">
        <ele>7.498182</ele>
        <time>2026-09-03T06:19:42.922Z</time>
      </trkpt>
      <trkpt lat="53.217095" lon="6.564856">
        <ele>7.481427</ele>
        <time>2026-09-03T06:19:46.923Z</time>
      </trkpt>
      <trkpt lat="53.217147" lon="6.564709">
        <ele>7.526916</ele>
        <time>2026-09-03T06:19:50.924Z</time>
      </trkpt>
      <trkpt lat="53.217180" lon="6.564547">
        <ele>7.572508</ele>
        <time>2026-09-03T06:19:54.924Z</time>
      </trkpt>
      <trkpt lat="53.217201" lon="6.564392">
        <ele>7.614849</ele>
        <time>2026-09-03T06:19:58.925Z</time>
      </trkpt>
      <trkpt lat="53.217174" lon="6.564230">
        <ele>7.659652</ele>
        <time>2026-09-03T06:20:02.925Z</time>
      </trkpt>
      <trkpt lat="53.217145" lon="6.564043">
        <ele>7.711119</ele>
        <time>2026-09-03T06:20:06.928Z</time>
      </trkpt>
      <trkpt lat="53.217125" lon="6.563891">
        <ele>7.752583</ele>
        <time>2026-09-03T06:20:09.926Z</time>
      </trkpt>
      <trkpt lat="53.217182" lon="6.563722">
        <ele>7.804262</ele>
        <time>2026-09-03T06:20:14.926Z</time>
      </trkpt>
      <trkpt lat="53.217298" lon="6.563647">
        <ele>7.859610</ele>
        <time>2026-09-03T06:20:17.929Z</time>
      </trkpt>
      <trkpt lat="53.217419" lon="6.563576">
        <ele>7.916676</ele>
        <time>2026-09-03T06:20:20.925Z</time>
      </trkpt>
      <trkpt lat="53.217528" lon="6.563499">
        <ele>7.969337</ele>
        <time>2026-09-03T06:20:23.922Z</time>
      </trkpt>
      <trkpt lat="53.217643" lon="6.563407">
        <ele>8.026075</ele>
        <time>2026-09-03T06:20:26.923Z</time>
      </trkpt>
      <trkpt lat="53.217762" lon="6.563325">
        <ele>8.083355</ele>
        <time>2026-09-03T06:20:29.924Z</time>
      </trkpt>
      <trkpt lat="53.217869" lon="6.563244">
        <ele>8.135628</ele>
        <time>2026-09-03T06:20:32.924Z</time>
      </trkpt>
      <trkpt lat="53.217972" lon="6.563147">
        <ele>8.188243</ele>
        <time>2026-09-03T06:20:35.928Z</time>
      </trkpt>
      <trkpt lat="53.218090" lon="6.563052">
        <ele>8.246531</ele>
        <time>2026-09-03T06:20:38.922Z</time>
      </trkpt>
      <trkpt lat="53.218192" lon="6.562961">
        <ele>8.288336</ele>
        <time>2026-09-03T06:20:41.922Z</time>
      </trkpt>
      <trkpt lat="53.218295" lon="6.562880">
        <ele>8.319632</ele>
        <time>2026-09-03T06:20:44.923Z</time>
      </trkpt>
      <trkpt lat="53.218406" lon="6.562802">
        <ele>8.352737</ele>
        <time>2026-09-03T06:20:47.926Z</time>
      </trkpt>
      <trkpt lat="53.218508" lon="6.562719">
        <ele>8.383927</ele>
        <time>2026-09-03T06:20:50.925Z</time>
      </trkpt>
      <trkpt lat="53.218604" lon="6.562632">
        <ele>8.413952</ele>
        <time>2026-09-03T06:20:53.924Z</time>
      </trkpt>
      <trkpt lat="53.218703" lon="6.562551">
        <ele>8.444256</ele>
        <time>2026-09-03T06:20:56.924Z</time>
      </trkpt>
      <trkpt lat="53.218723" lon="6.562375">
        <ele>8.473743</ele>
        <time>2026-09-03T06:21:06.923Z</time>
      </trkpt>
      <trkpt lat="53.218688" lon="6.562217">
        <ele>8.501472</ele>
        <time>2026-09-03T06:21:10.923Z</time>
      </trkpt>
      <trkpt lat="53.218660" lon="6.562074">
        <ele>8.526235</ele>
        <time>2026-09-03T06:21:14.924Z</time>
      </trkpt>
      <trkpt lat="53.218605" lon="6.561929">
        <ele>8.554488</ele>
        <time>2026-09-03T06:21:19.922Z</time>
      </trkpt>
      <trkpt lat="53.218605" lon="6.561774">
        <ele>8.580000</ele>
        <time>2026-09-03T06:21:27.922Z</time>
      </trkpt>
      <trkpt lat="53.218701" lon="6.561697">
        <ele>8.609276</ele>
        <time>2026-09-03T06:21:33.932Z</time>
      </trkpt>
      <trkpt lat="53.218706" lon="6.561528">
        <ele>8.637127</ele>
        <time>2026-09-03T06:21:39.930Z</time>
      </trkpt>
      <trkpt lat="53.218786" lon="6.561440">
        <ele>8.663460</ele>
        <time>2026-09-03T06:21:47.922Z</time>
      </trkpt>
      <trkpt lat="53.218789" lon="6.561281">
        <ele>8.689643</ele>
        <time>2026-09-03T06:22:06.927Z</time>
      </trkpt>
      <trkpt lat="53.218760" lon="6.561122">
        <ele>8.717001</ele>
        <time>2026-09-03T06:22:09.923Z</time>
      </trkpt>
      <trkpt lat="53.218720" lon="6.560958">
        <ele>8.746149</ele>
        <time>2026-09-03T06:22:13.922Z</time>
      </trkpt>
      <trkpt lat="53.218684" lon="6.560815">
        <ele>8.756609</ele>
        <time>2026-09-03T06:22:17.928Z</time>
      </trkpt>
      <trkpt lat="53.218643" lon="6.560658">
        <ele>8.690515</ele>
        <time>2026-09-03T06:22:21.928Z</time>
      </trkpt>
      <trkpt lat="53.218605" lon="6.560480">
        <ele>8.617594</ele>
        <time>2026-09-03T06:22:25.925Z</time>
      </trkpt>
      <trkpt lat="53.218549" lon="6.560311">
        <ele>8.543060</ele>
        <time>2026-09-03T06:22:29.925Z</time>
      </trkpt>
      <trkpt lat="53.218482" lon="6.560150">
        <ele>8.467403</ele>
        <time>2026-09-03T06:22:33.939Z</time>
      </trkpt>
      <trkpt lat="53.218466" lon="6.559991">
        <ele>8.405187</ele>
        <time>2026-09-03T06:22:37.926Z</time>
      </trkpt>
      <trkpt lat="53.218517" lon="6.559831">
        <ele>8.335243</ele>
        <time>2026-09-03T06:22:41.926Z</time>
      </trkpt>
      <trkpt lat="53.218584" lon="6.559649">
        <ele>8.252802</ele>
        <time>2026-09-03T06:22:45.924Z</time>
      </trkpt>
      <trkpt lat="53.218656" lon="6.559500">
        <ele>8.178918</ele>
        <time>2026-09-03T06:22:48.923Z</time>
      </trkpt>
      <trkpt lat="53.218724" lon="6.559345">
        <ele>8.104771</ele>
        <time>2026-09-03T06:22:51.938Z</time>
      </trkpt>
      <trkpt lat="53.218807" lon="6.559194">
        <ele>8.025675</ele>
        <time>2026-09-03T06:22:54.923Z</time>
      </trkpt>
      <trkpt lat="53.218891" lon="6.559064">
        <ele>7.951871</ele>
        <time>2026-09-03T06:22:57.926Z</time>
      </trkpt>
      <trkpt lat="53.218966" lon="6.558952">
        <ele>7.887033</ele>
        <time>2026-09-03T06:23:00.926Z</time>
      </trkpt>
      <trkpt lat="53.219056" lon="6.558841">
        <ele>7.814931</ele>
        <time>2026-09-03T06:23:04.931Z</time>
      </trkpt>
      <trkpt lat="53.219125" lon="6.558745">
        <ele>7.757055</ele>
        <time>2026-09-03T06:23:08.925Z</time>
      </trkpt>
      <trkpt lat="53.219068" lon="6.558598">
        <ele>7.689476</ele>
        <time>2026-09-03T06:23:13.930Z</time>
      </trkpt>
      <trkpt lat="53.219009" lon="6.558421">
        <ele>7.611306</ele>
        <time>2026-09-03T06:23:17.930Z</time>
      </trkpt>
      <trkpt lat="53.218959" lon="6.558287">
        <ele>7.520161</ele>
        <time>2026-09-03T06:23:20.929Z</time>
      </trkpt>
      <trkpt lat="53.218882" lon="6.558171">
        <ele>7.418299</ele>
        <time>2026-09-03T06:23:25.932Z</time>
      </trkpt>
      <trkpt lat="53.218780" lon="6.558184">
        <ele>7.317814</ele>
        <time>2026-09-03T06:23:31.925Z</time>
      </trkpt>
      <trkpt lat="53.218674" lon="6.558159">
        <ele>7.212658</ele>
        <time>2026-09-03T06:23:37.930Z</time>
      </trkpt>
      <trkpt lat="53.218775" lon="6.558177">
        <ele>7.112883</ele>
        <time>2026-09-03T06:24:53.924Z</time>
      </trkpt>
      <trkpt lat="53.218876" lon="6.558176">
        <ele>7.013669</ele>
        <time>2026-09-03T06:24:59.929Z</time>
      </trkpt>
      <trkpt lat="53.218982" lon="6.558120">
        <ele>6.904461</ele>
        <time>2026-09-03T06:25:04.923Z</time>
      </trkpt>
      <trkpt lat="53.219071" lon="6.558037">
        <ele>6.804330</ele>
        <time>2026-09-03T06:25:08.926Z</time>
      </trkpt>
      <trkpt lat="53.219166" lon="6.558072">
        <ele>6.708769</ele>
        <time>2026-09-03T06:25:13.926Z</time>
      </trkpt>
      <trkpt lat="53.219244" lon="6.558166">
        <ele>6.614286</ele>
        <time>2026-09-03T06:25:17.925Z</time>
      </trkpt>
      <trkpt lat="53.219322" lon="6.558284">
        <ele>6.510907</ele>
        <time>2026-09-03T06:25:21.924Z</time>
      </trkpt>
      <trkpt lat="53.219384" lon="6.558411">
        <ele>6.414530</ele>
        <time>2026-09-03T06:25:25.926Z</time>
      </trkpt>
      <trkpt lat="53.219446" lon="6.558550">
        <ele>6.312586</ele>
        <time>2026-09-03T06:25:29.926Z</time>
      </trkpt>
      <trkpt lat="53.219508" lon="6.558719">
        <ele>6.196014</ele>
        <time>2026-09-03T06:25:33.926Z</time>
      </trkpt>
      <trkpt lat="53.219545" lon="6.558857">
        <ele>6.107084</ele>
        <time>2026-09-03T06:25:36.925Z</time>
      </trkpt>
      <trkpt lat="53.219585" lon="6.559001">
        <ele>6.013720</ele>
        <time>2026-09-03T06:25:39.925Z</time>
      </trkpt>
      <trkpt lat="53.219629" lon="6.559143">
        <ele>5.919682</ele>
        <time>2026-09-03T06:25:42.924Z</time>
      </trkpt>
      <trkpt lat="53.219678" lon="6.559323">
        <ele>5.856922</ele>
        <time>2026-09-03T06:25:46.927Z</time>
      </trkpt>
      <trkpt lat="53.219720" lon="6.559456">
        <ele>5.893596</ele>
        <time>2026-09-03T06:25:49.926Z</time>
      </trkpt>
      <trkpt lat="53.219774" lon="6.559634">
        <ele>5.942265</ele>
        <time>2026-09-03T06:25:53.926Z</time>
      </trkpt>
      <trkpt lat="53.219827" lon="6.559803">
        <ele>5.988796</ele>
        <time>2026-09-03T06:25:57.926Z</time>
      </trkpt>
      <trkpt lat="53.219881" lon="6.559954">
        <ele>6.031694</ele>
        <time>2026-09-03T06:26:01.925Z</time>
      </trkpt>
      <trkpt lat="53.219952" lon="6.560054">
        <ele>6.069528</ele>
        <time>2026-09-03T06:26:06.922Z</time>
      </trkpt>
      <trkpt lat="53.220040" lon="6.559961">
        <ele>6.111948</ele>
        <time>2026-09-03T06:26:10.926Z</time>
      </trkpt>
      <trkpt lat="53.220123" lon="6.559881">
        <ele>6.150985</ele>
        <time>2026-09-03T06:26:13.929Z</time>
      </trkpt>
      <trkpt lat="53.220202" lon="6.559799">
        <ele>6.188874</ele>
        <time>2026-09-03T06:26:17.928Z</time>
      </trkpt>
      <trkpt lat="53.220264" lon="6.559961">
        <ele>6.235768</ele>
        <time>2026-09-03T06:26:23.923Z</time>
      </trkpt>
      <trkpt lat="53.220305" lon="6.560117">
        <ele>6.277320</ele>
        <time>2026-09-03T06:26:26.925Z</time>
      </trkpt>
      <trkpt lat="53.220354" lon="6.560278">
        <ele>6.321370</ele>
        <time>2026-09-03T06:26:29.926Z</time>
      </trkpt>
      <trkpt lat="53.220411" lon="6.560440">
        <ele>6.367199</ele>
        <time>2026-09-03T06:26:32.923Z</time>
      </trkpt>
      <trkpt lat="53.220464" lon="6.560618">
        <ele>6.415685</ele>
        <time>2026-09-03T06:26:35.930Z</time>
      </trkpt>
      <trkpt lat="53.220512" lon="6.560777">
        <ele>6.459115</ele>
        <time>2026-09-03T06:26:38.925Z</time>
      </trkpt>
      <trkpt lat="53.220564" lon="6.560924">
        <ele>6.500757</ele>
        <time>2026-09-03T06:26:41.924Z</time>
      </trkpt>
      <trkpt lat="53.220659" lon="6.561000">
        <ele>6.543666</ele>
        <time>2026-09-03T06:26:44.925Z</time>
      </trkpt>
      <trkpt lat="53.220764" lon="6.560933">
        <ele>6.604217</ele>
        <time>2026-09-03T06:26:47.930Z</time>
      </trkpt>
      <trkpt lat="53.220851" lon="6.560877">
        <ele>6.678274</ele>
        <time>2026-09-03T06:26:50.929Z</time>
      </trkpt>
      <trkpt lat="53.220973" lon="6.560672">
        <ele>6.815732</ele>
        <time>2026-09-03T06:27:14.924Z</time>
      </trkpt>
      <trkpt lat="53.220953" lon="6.560511">
        <ele>6.893929</ele>
        <time>2026-09-03T06:27:17.925Z</time>
      </trkpt>
      <trkpt lat="53.220887" lon="6.560321">
        <ele>6.998392</ele>
        <time>2026-09-03T06:27:20.923Z</time>
      </trkpt>
      <trkpt lat="53.220839" lon="6.560186">
        <ele>7.073061</ele>
        <time>2026-09-03T06:27:22.923Z</time>
      </trkpt>
      <trkpt lat="53.220780" lon="6.559992">
        <ele>7.176540</ele>
        <time>2026-09-03T06:27:25.930Z</time>
      </trkpt>
      <trkpt lat="53.220721" lon="6.559810">
        <ele>7.274966</ele>
        <time>2026-09-03T06:27:28.929Z</time>
      </trkpt>
      <trkpt lat="53.220656" lon="6.559629">
        <ele>7.375340</ele>
        <time>2026-09-03T06:27:31.929Z</time>
      </trkpt>
      <trkpt lat="53.220593" lon="6.559418">
        <ele>7.487470</ele>
        <time>2026-09-03T06:27:34.929Z</time>
      </trkpt>
      <trkpt lat="53.220553" lon="6.559278">
        <ele>7.561242</ele>
        <time>2026-09-03T06:27:36.929Z</time>
      </trkpt>
      <trkpt lat="53.220486" lon="6.559093">
        <ele>7.664065</ele>
        <time>2026-09-03T06:27:39.929Z</time>
      </trkpt>
      <trkpt lat="53.220447" lon="6.558919">
        <ele>7.752422</ele>
        <time>2026-09-03T06:27:42.922Z</time>
      </trkpt>
      <trkpt lat="53.220400" lon="6.558739">
        <ele>7.845811</ele>
        <time>2026-09-03T06:27:45.929Z</time>
      </trkpt>
      <trkpt lat="53.220347" lon="6.558578">
        <ele>7.933188</ele>
        <time>2026-09-03T06:27:48.923Z</time>
      </trkpt>
      <trkpt lat="53.220297" lon="6.558434">
        <ele>7.984490</ele>
        <time>2026-09-03T06:27:51.937Z</time>
      </trkpt>
      <trkpt lat="53.220248" lon="6.558267">
        <ele>7.821466</ele>
        <time>2026-09-03T06:27:54.924Z</time>
      </trkpt>
      <trkpt lat="53.220187" lon="6.558087">
        <ele>7.640159</ele>
        <time>2026-09-03T06:27:57.925Z</time>
      </trkpt>
      <trkpt lat="53.220132" lon="6.557919">
        <ele>7.472315</ele>
        <time>2026-09-03T06:28:00.940Z</time>
      </trkpt>
      <trkpt lat="53.220090" lon="6.557765">
        <ele>7.323976</ele>
        <time>2026-09-03T06:28:03.940Z</time>
      </trkpt>
      <trkpt lat="53.220042" lon="6.557607">
        <ele>7.168665</ele>
        <time>2026-09-03T06:28:06.926Z</time>
      </trkpt>
      <trkpt lat="53.219976" lon="6.557441">
        <ele>6.993990</ele>
        <time>2026-09-03T06:28:09.928Z</time>
      </trkpt>
      <trkpt lat="53.219913" lon="6.557291">
        <ele>6.833377</ele>
        <time>2026-09-03T06:28:12.924Z</time>
      </trkpt>
      <trkpt lat="53.219824" lon="6.557165">
        <ele>6.662562</ele>
        <time>2026-09-03T06:28:15.923Z</time>
      </trkpt>
      <trkpt lat="53.219730" lon="6.557054">
        <ele>6.494017</ele>
        <time>2026-09-03T06:28:18.926Z</time>
      </trkpt>
      <trkpt lat="53.219633" lon="6.556937">
        <ele>6.318840</ele>
        <time>2026-09-03T06:28:21.923Z</time>
      </trkpt>
      <trkpt lat="53.219569" lon="6.556790">
        <ele>6.159515</ele>
        <time>2026-09-03T06:28:24.937Z</time>
      </trkpt>
      <trkpt lat="53.219552" lon="6.556595">
        <ele>5.986775</ele>
        <time>2026-09-03T06:28:27.937Z</time>
      </trkpt>
      <trkpt lat="53.219536" lon="6.556406">
        <ele>5.819449</ele>
        <time>2026-09-03T06:28:30.923Z</time>
      </trkpt>
      <trkpt lat="53.219510" lon="6.556227">
        <ele>5.657986</ele>
        <time>2026-09-03T06:28:33.923Z</time>
      </trkpt>
      <trkpt lat="53.219508" lon="6.556062">
        <ele>5.513317</ele>
        <time>2026-09-03T06:28:36.924Z</time>
      </trkpt>
      <trkpt lat="53.219533" lon="6.555914">
        <ele>5.378515</ele>
        <time>2026-09-03T06:28:39.922Z</time>
      </trkpt>
      <trkpt lat="53.219611" lon="6.555802">
        <ele>5.257514</ele>
        <time>2026-09-03T06:28:42.937Z</time>
      </trkpt>
      <trkpt lat="53.219718" lon="6.555797">
        <ele>5.133620</ele>
        <time>2026-09-03T06:28:45.923Z</time>
      </trkpt>
      <trkpt lat="53.219826" lon="6.555766">
        <ele>5.006784</ele>
        <time>2026-09-03T06:28:48.926Z</time>
      </trkpt>
      <trkpt lat="53.219899" lon="6.555661">
        <ele>4.895277</ele>
        <time>2026-09-03T06:28:52.926Z</time>
      </trkpt>
      <trkpt lat="53.219976" lon="6.555417">
        <ele>4.704134</ele>
        <time>2026-09-03T06:29:59.922Z</time>
      </trkpt>
      <trkpt lat="53.220025" lon="6.555235">
        <ele>4.565842</ele>
        <time>2026-09-03T06:30:03.927Z</time>
      </trkpt>
      <trkpt lat="53.220043" lon="6.555073">
        <ele>4.451658</ele>
        <time>2026-09-03T06:30:06.921Z</time>
      </trkpt>
      <trkpt lat="53.220069" lon="6.554915">
        <ele>4.338103</ele>
        <time>2026-09-03T06:30:09.925Z</time>
      </trkpt>
      <trkpt lat="53.220097" lon="6.554765">
        <ele>4.229217</ele>
        <time>2026-09-03T06:30:12.925Z</time>
      </trkpt>
      <trkpt lat="53.220130" lon="6.554566">
        <ele>4.086117</ele>
        <time>2026-09-03T06:30:16.927Z</time>
      </trkpt>
      <trkpt lat="53.220169" lon="6.554407">
        <ele>3.967042</ele>
        <time>2026-09-03T06:30:19.926Z</time>
      </trkpt>
      <trkpt lat="53.220243" lon="6.554269">
        <ele>3.838659</ele>
        <time>2026-09-03T06:30:23.926Z</time>
      </trkpt>
      <trkpt lat="53.220350" lon="6.554227">
        <ele>3.711440</ele>
        <time>2026-09-03T06:30:27.927Z</time>
      </trkpt>
      <trkpt lat="53.220446" lon="6.554208">
        <ele>3.599548</ele>
        <time>2026-09-03T06:30:30.926Z</time>
      </trkpt>
      <trkpt lat="53.220568" lon="6.554209">
        <ele>3.458339</ele>
        <time>2026-09-03T06:30:34.922Z</time>
      </trkpt>
      <trkpt lat="53.220671" lon="6.554298">
        <ele>3.324114</ele>
        <time>2026-09-03T06:30:37.925Z</time>
      </trkpt>
      <trkpt lat="53.220759" lon="6.554375">
        <ele>3.294599</ele>
        <time>2026-09-03T06:30:40.921Z</time>
      </trkpt>
      <trkpt lat="53.220849" lon="6.554451">
        <ele>3.305290</ele>
        <time>2026-09-03T06:30:43.922Z</time>
      </trkpt>
      <trkpt lat="53.220937" lon="6.554538">
        <ele>3.316131</ele>
        <time>2026-09-03T06:30:47.926Z</time>
      </trkpt>
      <trkpt lat="53.221049" lon="6.554472">
        <ele>3.328722</ele>
        <time>2026-09-03T06:30:52.925Z</time>
      </trkpt>
      <trkpt lat="53.221112" lon="6.554352">
        <ele>3.338852</ele>
        <time>2026-09-03T06:30:55.928Z</time>
      </trkpt>
      <trkpt lat="53.221158" lon="6.554219">
        <ele>3.348601</ele>
        <time>2026-09-03T06:30:58.925Z</time>
      </trkpt>
      <trkpt lat="53.221233" lon="6.554072">
        <ele>3.360860</ele>
        <time>2026-09-03T06:31:02.925Z</time>
      </trkpt>
      <trkpt lat="53.221306" lon="6.553939">
        <ele>3.372312</ele>
        <time>2026-09-03T06:31:06.925Z</time>
      </trkpt>
      <trkpt lat="53.221406" lon="6.554023">
        <ele>3.384179</ele>
        <time>2026-09-03T06:31:10.926Z</time>
      </trkpt>
      <trkpt lat="53.221488" lon="6.554094">
        <ele>3.393970</ele>
        <time>2026-09-03T06:31:13.926Z</time>
      </trkpt>
      <trkpt lat="53.221576" lon="6.554149">
        <ele>3.403931</ele>
        <time>2026-09-03T06:31:16.926Z</time>
      </trkpt>
      <trkpt lat="53.221679" lon="6.554181">
        <ele>3.415038</ele>
        <time>2026-09-03T06:31:19.928Z</time>
      </trkpt>
      <trkpt lat="53.221784" lon="6.554170">
        <ele>3.426191</ele>
        <time>2026-09-03T06:31:22.926Z</time>
      </trkpt>
      <trkpt lat="53.221881" lon="6.554131">
        <ele>3.436768</ele>
        <time>2026-09-03T06:31:25.920Z</time>
      </trkpt>
      <trkpt lat="53.221973" lon="6.554085">
        <ele>3.446949</ele>
        <time>2026-09-03T06:31:28.926Z</time>
      </trkpt>
      <trkpt lat="53.222056" lon="6.554007">
        <ele>3.457045</ele>
        <time>2026-09-03T06:31:31.941Z</time>
      </trkpt>
      <trkpt lat="53.222126" lon="6.553907">
        <ele>3.466810</ele>
        <time>2026-09-03T06:31:34.926Z</time>
      </trkpt>
      <trkpt lat="53.222206" lon="6.553790">
        <ele>3.478083</ele>
        <time>2026-09-03T06:31:37.925Z</time>
      </trkpt>
      <trkpt lat="53.222281" lon="6.553656">
        <ele>3.498039</ele>
        <time>2026-09-03T06:31:40.925Z</time>
      </trkpt>
      <trkpt lat="53.222355" lon="6.553506">
        <ele>3.519202</ele>
        <time>2026-09-03T06:31:44.926Z</time>
      </trkpt>
      <trkpt lat="53.222442" lon="6.553385">
        <ele>3.539791</ele>
        <time>2026-09-03T06:31:48.927Z</time>
      </trkpt>
      <trkpt lat="53.222509" lon="6.553277">
        <ele>3.556724</ele>
        <time>2026-09-03T06:31:51.927Z</time>
      </trkpt>
      <trkpt lat="53.222579" lon="6.553174">
        <ele>3.573690</ele>
        <time>2026-09-03T06:31:57.928Z</time>
      </trkpt>
      <trkpt lat="53.222665" lon="6.553068">
        <ele>3.593128</ele>
        <time>2026-09-03T06:32:01.926Z</time>
      </trkpt>
      <trkpt lat="53.222735" lon="6.552964">
        <ele>3.610165</ele>
        <time>2026-09-03T06:32:04.922Z</time>
      </trkpt>
      <trkpt lat="53.222843" lon="6.552926">
        <ele>3.630237</ele>
        <time>2026-09-03T06:32:08.929Z</time>
      </trkpt>
      <trkpt lat="53.222935" lon="6.552973">
        <ele>3.647734</ele>
        <time>2026-09-03T06:32:11.927Z</time>
      </trkpt>
      <trkpt lat="53.223033" lon="6.553024">
        <ele>3.666401</ele>
        <time>2026-09-03T06:32:14.925Z</time>
      </trkpt>
      <trkpt lat="53.223128" lon="6.553081">
        <ele>3.684759</ele>
        <time>2026-09-03T06:32:17.925Z</time>
      </trkpt>
      <trkpt lat="53.223210" lon="6.553148">
        <ele>3.701360</ele>
        <time>2026-09-03T06:32:20.926Z</time>
      </trkpt>
      <trkpt lat="53.223290" lon="6.553233">
        <ele>3.718603</ele>
        <time>2026-09-03T06:32:23.926Z</time>
      </trkpt>
      <trkpt lat="53.223375" lon="6.553324">
        <ele>3.736964</ele>
        <time>2026-09-03T06:32:26.926Z</time>
      </trkpt>
      <trkpt lat="53.223459" lon="6.553426">
        <ele>3.755851</ele>
        <time>2026-09-03T06:32:30.925Z</time>
      </trkpt>
      <trkpt lat="53.223540" lon="6.553491">
        <ele>3.772194</ele>
        <time>2026-09-03T06:32:35.927Z</time>
      </trkpt>
      <trkpt lat="53.223511" lon="6.553341">
        <ele>3.789356</ele>
        <time>2026-09-03T06:32:39.925Z</time>
      </trkpt>
      <trkpt lat="53.223457" lon="6.553195">
        <ele>3.814295</ele>
        <time>2026-09-03T06:32:42.925Z</time>
      </trkpt>
      <trkpt lat="53.223385" lon="6.553064">
        <ele>3.876420</ele>
        <time>2026-09-03T06:32:45.927Z</time>
      </trkpt>
      <trkpt lat="53.223319" lon="6.552937">
        <ele>3.935172</ele>
        <time>2026-09-03T06:32:48.925Z</time>
      </trkpt>
      <trkpt lat="53.223228" lon="6.552840">
        <ele>3.998164</ele>
        <time>2026-09-03T06:32:52.926Z</time>
      </trkpt>
      <trkpt lat="53.223300" lon="6.552745">
        <ele>4.051705</ele>
        <time>2026-09-03T06:32:58.925Z</time>
      </trkpt>
      <trkpt lat="53.223398" lon="6.552698">
        <ele>4.111201</ele>
        <time>2026-09-03T06:33:02.925Z</time>
      </trkpt>
      <trkpt lat="53.223507" lon="6.552648">
        <ele>4.177160</ele>
        <time>2026-09-03T06:33:06.926Z</time>
      </trkpt>
      <trkpt lat="53.223597" lon="6.552535">
        <ele>4.242859</ele>
        <time>2026-09-03T06:33:10.924Z</time>
      </trkpt>
      <trkpt lat="53.223590" lon="6.552381">
        <ele>4.296814</ele>
        <time>2026-09-03T06:33:13.926Z</time>
      </trkpt>
      <trkpt lat="53.223552" lon="6.552236">
        <ele>4.352111</ele>
        <time>2026-09-03T06:33:16.921Z</time>
      </trkpt>
      <trkpt lat="53.223511" lon="6.552083">
        <ele>4.410672</ele>
        <time>2026-09-03T06:33:19.926Z</time>
      </trkpt>
      <trkpt lat="53.223470" lon="6.551938">
        <ele>4.466694</ele>
        <time>2026-09-03T06:33:22.924Z</time>
      </trkpt>
      <trkpt lat="53.223430" lon="6.551788">
        <ele>4.524060</ele>
        <time>2026-09-03T06:33:25.926Z</time>
      </trkpt>
      <trkpt lat="53.223390" lon="6.551643">
        <ele>4.579835</ele>
        <time>2026-09-03T06:33:28.924Z</time>
      </trkpt>
      <trkpt lat="53.223353" lon="6.551456">
        <ele>4.648639</ele>
        <time>2026-09-03T06:33:32.926Z</time>
      </trkpt>
      <trkpt lat="53.223330" lon="6.551307">
        <ele>4.702395</ele>
        <time>2026-09-03T06:33:35.925Z</time>
      </trkpt>
      <trkpt lat="53.223296" lon="6.551154">
        <ele>4.759409</ele>
        <time>2026-09-03T06:33:38.928Z</time>
      </trkpt>
      <trkpt lat="53.223258" lon="6.551014">
        <ele>4.813111</ele>
        <time>2026-09-03T06:33:41.926Z</time>
      </trkpt>
      <trkpt lat="53.223300" lon="6.550865">
        <ele>4.842658</ele>
        <time>2026-09-03T06:33:45.922Z</time>
      </trkpt>
      <trkpt lat="53.223393" lon="6.550824">
        <ele>4.799901</ele>
        <time>2026-09-03T06:33:48.921Z</time>
      </trkpt>
      <trkpt lat="53.223478" lon="6.550771">
        <ele>4.759570</ele>
        <time>2026-09-03T06:33:51.920Z</time>
      </trkpt>
      <trkpt lat="53.223566" lon="6.550688">
        <ele>4.714646</ele>
        <time>2026-09-03T06:33:56.920Z</time>
      </trkpt>
      <trkpt lat="53.223654" lon="6.550628">
        <ele>4.672394</ele>
        <time>2026-09-03T06:34:00.921Z</time>
      </trkpt>
      <trkpt lat="53.223742" lon="6.550540">
        <ele>4.626801</ele>
        <time>2026-09-03T06:34:04.921Z</time>
      </trkpt>
      <trkpt lat="53.223854" lon="6.550483">
        <ele>4.574754</ele>
        <time>2026-09-03T06:34:08.921Z</time>
      </trkpt>
      <trkpt lat="53.223966" lon="6.550454">
        <ele>4.524373</ele>
        <time>2026-09-03T06:34:12.923Z</time>
      </trkpt>
      <trkpt lat="53.224025" lon="6.550572">
        <ele>4.483457</ele>
        <time>2026-09-03T06:34:15.926Z</time>
      </trkpt>
      <trkpt lat="53.224050" lon="6.550725">
        <ele>4.441250</ele>
        <time>2026-09-03T06:34:18.925Z</time>
      </trkpt>
      <trkpt lat="53.224087" lon="6.550914">
        <ele>4.388330</ele>
        <time>2026-09-03T06:34:22.925Z</time>
      </trkpt>
      <trkpt lat="53.224128" lon="6.551059">
        <ele>4.345654</ele>
        <time>2026-09-03T06:34:25.926Z</time>
      </trkpt>
      <trkpt lat="53.224167" lon="6.551210">
        <ele>4.301888</ele>
        <time>2026-09-03T06:34:28.925Z</time>
      </trkpt>
      <trkpt lat="53.224195" lon="6.551354">
        <ele>4.261594</ele>
        <time>2026-09-03T06:34:31.925Z</time>
      </trkpt>
      <trkpt lat="53.224238" lon="6.551541">
        <ele>4.208283</ele>
        <time>2026-09-03T06:34:35.926Z</time>
      </trkpt>
      <trkpt lat="53.224275" lon="6.551694">
        <ele>4.164369</ele>
        <time>2026-09-03T06:34:38.925Z</time>
      </trkpt>
      <trkpt lat="53.224306" lon="6.551849">
        <ele>4.120878</ele>
        <time>2026-09-03T06:34:41.926Z</time>
      </trkpt>
      <trkpt lat="53.224329" lon="6.551994">
        <ele>4.080957</ele>
        <time>2026-09-03T06:34:44.926Z</time>
      </trkpt>
      <trkpt lat="53.224414" lon="6.552069">
        <ele>4.049879</ele>
        <time>2026-09-03T06:34:48.926Z</time>
      </trkpt>
      <trkpt lat="53.224514" lon="6.551994">
        <ele>4.034573</ele>
        <time>2026-09-03T06:34:51.926Z</time>
      </trkpt>
      <trkpt lat="53.224609" lon="6.551927">
        <ele>4.020175</ele>
        <time>2026-09-03T06:34:54.926Z</time>
      </trkpt>
      <trkpt lat="53.224702" lon="6.551863">
        <ele>4.006130</ele>
        <time>2026-09-03T06:34:57.925Z</time>
      </trkpt>
      <trkpt lat="53.224790" lon="6.551889">
        <ele>3.993652</ele>
        <time>2026-09-03T06:35:00.925Z</time>
      </trkpt>
      <trkpt lat="53.224837" lon="6.552067">
        <ele>3.977390</ele>
        <time>2026-09-03T06:35:04.926Z</time>
      </trkpt>
      <trkpt lat="53.224867" lon="6.552213">
        <ele>3.964487</ele>
        <time>2026-09-03T06:35:08.925Z</time>
      </trkpt>
      <trkpt lat="53.224979" lon="6.552181">
        <ele>3.948621</ele>
        <time>2026-09-03T06:35:13.925Z</time>
      </trkpt>
      <trkpt lat="53.225079" lon="6.552076">
        <ele>3.932129</ele>
        <time>2026-09-03T06:35:16.926Z</time>
      </trkpt>
      <trkpt lat="53.225174" lon="6.551982">
        <ele>3.916711</ele>
        <time>2026-09-03T06:35:19.925Z</time>
      </trkpt>
      <trkpt lat="53.225263" lon="6.551878">
        <ele>3.901546</ele>
        <time>2026-09-03T06:35:22.921Z</time>
      </trkpt>
      <trkpt lat="53.225352" lon="6.551780">
        <ele>3.886661</ele>
        <time>2026-09-03T06:35:25.924Z</time>
      </trkpt>
      <trkpt lat="53.225436" lon="6.551653">
        <ele>3.870842</ele>
        <time>2026-09-03T06:35:28.921Z</time>
      </trkpt>
      <trkpt lat="53.225536" lon="6.551519">
        <ele>3.852941</ele>
        <time>2026-09-03T06:35:31.933Z</time>
      </trkpt>
      <trkpt lat="53.225607" lon="6.551424">
        <ele>3.840239</ele>
        <time>2026-09-03T06:35:33.933Z</time>
      </trkpt>
      <trkpt lat="53.225704" lon="6.551291">
        <ele>3.822717</ele>
        <time>2026-09-03T06:35:36.934Z</time>
      </trkpt>
      <trkpt lat="53.225804" lon="6.551176">
        <ele>3.805765</ele>
        <time>2026-09-03T06:35:39.933Z</time>
      </trkpt>
      <trkpt lat="53.225906" lon="6.551058">
        <ele>3.905686</ele>
        <time>2026-09-03T06:35:42.924Z</time>
      </trkpt>
      <trkpt lat="53.226010" lon="6.550934">
        <ele>4.021640</ele>
        <time>2026-09-03T06:35:45.933Z</time>
      </trkpt>
      <trkpt lat="53.226105" lon="6.550802">
        <ele>4.133778</ele>
        <time>2026-09-03T06:35:48.921Z</time>
      </trkpt>
      <trkpt lat="53.226199" lon="6.550661">
        <ele>4.248427</ele>
        <time>2026-09-03T06:35:51.926Z</time>
      </trkpt>
      <trkpt lat="53.226300" lon="6.550539">
        <ele>4.361536</ele>
        <time>2026-09-03T06:35:54.926Z</time>
      </trkpt>
      <trkpt lat="53.226416" lon="6.550493">
        <ele>4.469730</ele>
        <time>2026-09-03T06:35:57.926Z</time>
      </trkpt>
      <trkpt lat="53.226520" lon="6.550574">
        <ele>4.573863</ele>
        <time>2026-09-03T06:36:00.925Z</time>
      </trkpt>
      <trkpt lat="53.226589" lon="6.550741">
        <ele>4.684099</ele>
        <time>2026-09-03T06:36:03.925Z</time>
      </trkpt>
      <trkpt lat="53.226659" lon="6.550854">
        <ele>4.772438</ele>
        <time>2026-09-03T06:36:05.926Z</time>
      </trkpt>
      <trkpt lat="53.226730" lon="6.550955">
        <ele>4.857067</ele>
        <time>2026-09-03T06:36:07.922Z</time>
      </trkpt>
      <trkpt lat="53.226800" lon="6.551058">
        <ele>4.941722</ele>
        <time>2026-09-03T06:36:09.923Z</time>
      </trkpt>
      <trkpt lat="53.226879" lon="6.551206">
        <ele>5.049445</ele>
        <time>2026-09-03T06:36:12.925Z</time>
      </trkpt>
      <trkpt lat="53.226970" lon="6.551365">
        <ele>5.168947</ele>
        <time>2026-09-03T06:36:15.927Z</time>
      </trkpt>
      <trkpt lat="53.227039" lon="6.551472">
        <ele>5.254386</ele>
        <time>2026-09-03T06:36:17.926Z</time>
      </trkpt>
      <trkpt lat="53.227112" lon="6.551573">
        <ele>5.340405</ele>
        <time>2026-09-03T06:36:19.933Z</time>
      </trkpt>
      <trkpt lat="53.227202" lon="6.551730">
        <ele>5.441162</ele>
        <time>2026-09-03T06:36:22.933Z</time>
      </trkpt>
      <trkpt lat="53.227295" lon="6.551883">
        <ele>5.467059</ele>
        <time>2026-09-03T06:36:25.924Z</time>
      </trkpt>
      <trkpt lat="53.227367" lon="6.551985">
        <ele>5.485789</ele>
        <time>2026-09-03T06:36:27.933Z</time>
      </trkpt>
      <trkpt lat="53.227460" lon="6.552140">
        <ele>5.511854</ele>
        <time>2026-09-03T06:36:30.921Z</time>
      </trkpt>
      <trkpt lat="53.227545" lon="6.552279">
        <ele>5.535454</ele>
        <time>2026-09-03T06:36:33.922Z</time>
      </trkpt>
      <trkpt lat="53.227633" lon="6.552420">
        <ele>5.559647</ele>
        <time>2026-09-03T06:36:36.921Z</time>
      </trkpt>
      <trkpt lat="53.227731" lon="6.552566">
        <ele>5.585700</ele>
        <time>2026-09-03T06:36:39.921Z</time>
      </trkpt>
      <trkpt lat="53.227816" lon="6.552709">
        <ele>5.609634</ele>
        <time>2026-09-03T06:36:42.933Z</time>
      </trkpt>
      <trkpt lat="53.227897" lon="6.552840">
        <ele>5.632003</ele>
        <time>2026-09-03T06:36:45.933Z</time>
      </trkpt>
      <trkpt lat="53.227973" lon="6.552968">
        <ele>5.653415</ele>
        <time>2026-09-03T06:36:48.922Z</time>
      </trkpt>
      <trkpt lat="53.228048" lon="6.553092">
        <ele>5.674351</ele>
        <time>2026-09-03T06:36:51.924Z</time>
      </trkpt>
      <trkpt lat="53.228147" lon="6.553143">
        <ele>5.694905</ele>
        <time>2026-09-03T06:36:55.924Z</time>
      </trkpt>
      <trkpt lat="53.228225" lon="6.552997">
        <ele>5.718147</ele>
        <time>2026-09-03T06:36:59.924Z</time>
      </trkpt>
      <trkpt lat="53.228235" lon="6.552844">
        <ele>5.736427</ele>
        <time>2026-09-03T06:37:02.924Z</time>
      </trkpt>
      <trkpt lat="53.228200" lon="6.552688">
        <ele>5.756213</ele>
        <time>2026-09-03T06:37:05.924Z</time>
      </trkpt>
      <trkpt lat="53.228167" lon="6.552531">
        <ele>5.775976</ele>
        <time>2026-09-03T06:37:08.925Z</time>
      </trkpt>
      <trkpt lat="53.228122" lon="6.552354">
        <ele>5.819459</ele>
        <time>2026-09-03T06:37:11.925Z</time>
      </trkpt>
      <trkpt lat="53.228073" lon="6.552184">
        <ele>5.923761</ele>
        <time>2026-09-03T06:37:14.925Z</time>
      </trkpt>
      <trkpt lat="53.228031" lon="6.552022">
        <ele>6.021353</ele>
        <time>2026-09-03T06:37:17.922Z</time>
      </trkpt>
      <trkpt lat="53.228065" lon="6.551866">
        <ele>6.113128</ele>
        <time>2026-09-03T06:37:22.926Z</time>
      </trkpt>
      <trkpt lat="53.228128" lon="6.551753">
        <ele>6.198489</ele>
        <time>2026-09-03T06:37:26.925Z</time>
      </trkpt>
      <trkpt lat="53.228241" lon="6.551718">
        <ele>6.304617</ele>
        <time>2026-09-03T06:37:30.922Z</time>
      </trkpt>
      <trkpt lat="53.228346" lon="6.551680">
        <ele>6.403828</ele>
        <time>2026-09-03T06:37:34.926Z</time>
      </trkpt>
      <trkpt lat="53.228437" lon="6.551636">
        <ele>6.491310</ele>
        <time>2026-09-03T06:37:38.926Z</time>
      </trkpt>
      <trkpt lat="53.228457" lon="6.551469">
        <ele>6.585457</ele>
        <time>2026-09-03T06:37:48.930Z</time>
      </trkpt>
      <trkpt lat="53.228439" lon="6.551309">
        <ele>6.675453</ele>
        <time>2026-09-03T06:37:52.929Z</time>
      </trkpt>
      <trkpt lat="53.228414" lon="6.551126">
        <ele>6.779215</ele>
        <time>2026-09-03T06:37:56.930Z</time>
      </trkpt>
      <trkpt lat="53.228383" lon="6.550958">
        <ele>6.876397</ele>
        <time>2026-09-03T06:38:00.926Z</time>
      </trkpt>
      <trkpt lat="53.228408" lon="6.550803">
        <ele>6.965137</ele>
        <time>2026-09-03T06:38:08.925Z</time>
      </trkpt>
      <trkpt lat="53.228396" lon="6.550612">
        <ele>7.071301</ele>
        <time>2026-09-03T06:38:14.921Z</time>
      </trkpt>
      <trkpt lat="53.228378" lon="6.550445">
        <ele>7.165103</ele>
        <time>2026-09-03T06:38:18.927Z</time>
      </trkpt>
      <trkpt lat="53.228359" lon="6.550271">
        <ele>7.262877</ele>
        <time>2026-09-03T06:38:22.925Z</time>
      </trkpt>
      <trkpt lat="53.228345" lon="6.550113">
        <ele>7.351170</ele>
        <time>2026-09-03T06:38:26.926Z</time>
      </trkpt>
      <trkpt lat="53.228302" lon="6.549933">
        <ele>7.447151</ele>
        <time>2026-09-03T06:38:31.925Z</time>
      </trkpt>
      <trkpt lat="53.228263" lon="6.549782">
        <ele>7.296227</ele>
        <time>2026-09-03T06:38:35.927Z</time>
      </trkpt>
      <trkpt lat="53.228279" lon="6.549607">
        <ele>7.133763</ele>
        <time>2026-09-03T06:38:40.926Z</time>
      </trkpt>
      <trkpt lat="53.228375" lon="6.549500">
        <ele>6.956839</ele>
        <time>2026-09-03T06:38:43.926Z</time>
      </trkpt>
      <trkpt lat="53.228474" lon="6.549371">
        <ele>6.764355</ele>
        <time>2026-09-03T06:38:46.925Z</time>
      </trkpt>
      <trkpt lat="53.228583" lon="6.549243">
        <ele>6.560096</ele>
        <time>2026-09-03T06:38:49.925Z</time>
      </trkpt>
      <trkpt lat="53.228692" lon="6.549126">
        <ele>6.361470</ele>
        <time>2026-09-03T06:38:52.925Z</time>
      </trkpt>
      <trkpt lat="53.228797" lon="6.549008">
        <ele>6.167465</ele>
        <time>2026-09-03T06:38:55.925Z</time>
      </trkpt>
      <trkpt lat="53.228910" lon="6.548897">
        <ele>5.966500</ele>
        <time>2026-09-03T06:38:58.933Z</time>
      </trkpt>
      <trkpt lat="53.228994" lon="6.548841">
        <ele>5.827848</ele>
        <time>2026-09-03T06:39:00.927Z</time>
      </trkpt>
      <trkpt lat="53.229083" lon="6.548788">
        <ele>5.682997</ele>
        <time>2026-09-03T06:39:02.926Z</time>
      </trkpt>
      <trkpt lat="53.229172" lon="6.548745">
        <ele>5.540964</ele>
        <time>2026-09-03T06:39:04.926Z</time>
      </trkpt>
      <trkpt lat="53.229283" lon="6.548728">
        <ele>5.370082</ele>
        <time>2026-09-03T06:39:07.921Z</time>
      </trkpt>
      <trkpt lat="53.229414" lon="6.548704">
        <ele>5.168049</ele>
        <time>2026-09-03T06:39:10.926Z</time>
      </trkpt>
      <trkpt lat="53.229499" lon="6.548645">
        <ele>5.026939</ele>
        <time>2026-09-03T06:39:12.926Z</time>
      </trkpt>
      <trkpt lat="53.229590" lon="6.548532">
        <ele>4.853112</ele>
        <time>2026-09-03T06:39:14.926Z</time>
      </trkpt>
      <trkpt lat="53.229673" lon="6.548430">
        <ele>4.696688</ele>
        <time>2026-09-03T06:39:16.926Z</time>
      </trkpt>
      <trkpt lat="53.229765" lon="6.548377">
        <ele>4.694712</ele>
        <time>2026-09-03T06:39:18.925Z</time>
      </trkpt>
      <trkpt lat="53.229862" lon="6.548332">
        <ele>4.692667</ele>
        <time>2026-09-03T06:39:20.942Z</time>
      </trkpt>
      <trkpt lat="53.229972" lon="6.548289">
        <ele>4.690373</ele>
        <time>2026-09-03T06:39:22.926Z</time>
      </trkpt>
      <trkpt lat="53.230072" lon="6.548237">
        <ele>4.688246</ele>
        <time>2026-09-03T06:39:24.928Z</time>
      </trkpt>
      <trkpt lat="53.230162" lon="6.548176">
        <ele>4.686274</ele>
        <time>2026-09-03T06:39:26.927Z</time>
      </trkpt>
      <trkpt lat="53.230263" lon="6.548121">
        <ele>4.684117</ele>
        <time>2026-09-03T06:39:28.926Z</time>
      </trkpt>
      <trkpt lat="53.230355" lon="6.548080">
        <ele>4.682183</ele>
        <time>2026-09-03T06:39:30.926Z</time>
      </trkpt>
      <trkpt lat="53.230457" lon="6.548032">
        <ele>4.680031</ele>
        <time>2026-09-03T06:39:32.927Z</time>
      </trkpt>
      <trkpt lat="53.230545" lon="6.547990">
        <ele>4.678173</ele>
        <time>2026-09-03T06:39:34.933Z</time>
      </trkpt>
      <trkpt lat="53.230632" lon="6.547945">
        <ele>4.676323</ele>
        <time>2026-09-03T06:39:36.926Z</time>
      </trkpt>
      <trkpt lat="53.230763" lon="6.547875">
        <ele>4.673530</ele>
        <time>2026-09-03T06:39:39.926Z</time>
      </trkpt>
      <trkpt lat="53.230871" lon="6.547737">
        <ele>4.670769</ele>
        <time>2026-09-03T06:39:42.926Z</time>
      </trkpt>
      <trkpt lat="53.230934" lon="6.547611">
        <ele>4.668773</ele>
        <time>2026-09-03T06:39:44.943Z</time>
      </trkpt>
      <trkpt lat="53.230997" lon="6.547502">
        <ele>4.666931</ele>
        <time>2026-09-03T06:39:46.925Z</time>
      </trkpt>
      <trkpt lat="53.231095" lon="6.547454">
        <ele>4.664857</ele>
        <time>2026-09-03T06:39:48.925Z</time>
      </trkpt>
      <trkpt lat="53.231192" lon="6.547407">
        <ele>4.662806</ele>
        <time>2026-09-03T06:39:50.926Z</time>
      </trkpt>
      <trkpt lat="53.231282" lon="6.547367">
        <ele>4.660915</ele>
        <time>2026-09-03T06:39:52.926Z</time>
      </trkpt>
      <trkpt lat="53.231370" lon="6.547323">
        <ele>4.629223</ele>
        <time>2026-09-03T06:39:54.927Z</time>
      </trkpt>
      <trkpt lat="53.231472" lon="6.547247">
        <ele>4.567247</ele>
        <time>2026-09-03T06:39:57.927Z</time>
      </trkpt>
      <trkpt lat="53.231581" lon="6.547187">
        <ele>4.503563</ele>
        <time>2026-09-03T06:40:00.926Z</time>
      </trkpt>
      <trkpt lat="53.231670" lon="6.547146">
        <ele>4.452333</ele>
        <time>2026-09-03T06:40:03.927Z</time>
      </trkpt>
      <trkpt lat="53.231790" lon="6.547097">
        <ele>4.383783</ele>
        <time>2026-09-03T06:40:11.926Z</time>
      </trkpt>
      <trkpt lat="53.231899" lon="6.547032">
        <ele>4.319560</ele>
        <time>2026-09-03T06:40:14.926Z</time>
      </trkpt>
      <trkpt lat="53.232021" lon="6.546979">
        <ele>4.249610</ele>
        <time>2026-09-03T06:40:17.930Z</time>
      </trkpt>
      <trkpt lat="53.232111" lon="6.546949">
        <ele>4.198683</ele>
        <time>2026-09-03T06:40:19.927Z</time>
      </trkpt>
      <trkpt lat="53.232205" lon="6.546911">
        <ele>4.145016</ele>
        <time>2026-09-03T06:40:21.926Z</time>
      </trkpt>
      <trkpt lat="53.232291" lon="6.546863">
        <ele>4.094701</ele>
        <time>2026-09-03T06:40:23.926Z</time>
      </trkpt>
      <trkpt lat="53.232435" lon="6.546784">
        <ele>4.010596</ele>
        <time>2026-09-03T06:40:26.926Z</time>
      </trkpt>
      <trkpt lat="53.232528" lon="6.546726">
        <ele>3.955511</ele>
        <time>2026-09-03T06:40:28.928Z</time>
      </trkpt>
      <trkpt lat="53.232620" lon="6.546673">
        <ele>3.901509</ele>
        <time>2026-09-03T06:40:30.930Z</time>
      </trkpt>
      <trkpt lat="53.232708" lon="6.546626">
        <ele>3.850242</ele>
        <time>2026-09-03T06:40:32.927Z</time>
      </trkpt>
      <trkpt lat="53.232816" lon="6.546591">
        <ele>3.789195</ele>
        <time>2026-09-03T06:40:34.926Z</time>
      </trkpt>
      <trkpt lat="53.232912" lon="6.546544">
        <ele>3.733683</ele>
        <time>2026-09-03T06:40:36.926Z</time>
      </trkpt>
      <trkpt lat="53.233012" lon="6.546483">
        <ele>3.674609</ele>
        <time>2026-09-03T06:40:38.933Z</time>
      </trkpt>
      <trkpt lat="53.233107" lon="6.546431">
        <ele>3.637981</ele>
        <time>2026-09-03T06:40:40.924Z</time>
      </trkpt>
      <trkpt lat="53.233207" lon="6.546382">
        <ele>3.605520</ele>
        <time>2026-09-03T06:40:42.926Z</time>
      </trkpt>
      <trkpt lat="53.233307" lon="6.546332">
        <ele>3.573007</ele>
        <time>2026-09-03T06:40:44.951Z</time>
      </trkpt>
      <trkpt lat="53.233403" lon="6.546270">
        <ele>3.540947</ele>
        <time>2026-09-03T06:40:46.921Z</time>
      </trkpt>
      <trkpt lat="53.233518" lon="6.546219">
        <ele>3.503886</ele>
        <time>2026-09-03T06:40:48.923Z</time>
      </trkpt>
      <trkpt lat="53.233639" lon="6.546163">
        <ele>3.464777</ele>
        <time>2026-09-03T06:40:50.925Z</time>
      </trkpt>
      <trkpt lat="53.233739" lon="6.546121">
        <ele>3.432659</ele>
        <time>2026-09-03T06:40:52.922Z</time>
      </trkpt>
      <trkpt lat="53.233845" lon="6.546074">
        <ele>3.398498</ele>
        <time>2026-09-03T06:40:54.925Z</time>
      </trkpt>
      <trkpt lat="53.233943" lon="6.546022">
        <ele>3.366470</ele>
        <time>2026-09-03T06:40:56.934Z</time>
      </trkpt>
      <trkpt lat="53.234039" lon="6.545962">
        <ele>3.334544</ele>
        <time>2026-09-03T06:40:58.925Z</time>
      </trkpt>
      <trkpt lat="53.234138" lon="6.545909">
        <ele>3.302162</ele>
        <time>2026-09-03T06:41:00.926Z</time>
      </trkpt>
      <trkpt lat="53.234235" lon="6.545841">
        <ele>3.269396</ele>
        <time>2026-09-03T06:41:02.930Z</time>
      </trkpt>
      <trkpt lat="53.234322" lon="6.545755">
        <ele>3.237908</ele>
        <time>2026-09-03T06:41:04.937Z</time>
      </trkpt>
      <trkpt lat="53.234385" lon="6.545607">
        <ele>3.204049</ele>
        <time>2026-09-03T06:41:07.929Z</time>
      </trkpt>
      <trkpt lat="53.234348" lon="6.545461">
        <ele>3.174490</ele>
        <time>2026-09-03T06:41:11.926Z</time>
      </trkpt>
      <trkpt lat="53.234337" lon="6.545266">
        <ele>3.137973</ele>
        <time>2026-09-03T06:41:15.926Z</time>
      </trkpt>
      <trkpt lat="53.234351" lon="6.545105">
        <ele>3.107642</ele>
        <time>2026-09-03T06:41:18.927Z</time>
      </trkpt>
      <trkpt lat="53.234383" lon="6.544960">
        <ele>3.093739</ele>
        <time>2026-09-03T06:41:21.928Z</time>
      </trkpt>
      <trkpt lat="53.234439" lon="6.544787">
        <ele>3.080826</ele>
        <time>2026-09-03T06:41:25.928Z</time>
      </trkpt>
      <trkpt lat="53.234479" lon="6.544652">
        <ele>3.070936</ele>
        <time>2026-09-03T06:41:28.926Z</time>
      </trkpt>
      <trkpt lat="53.234478" lon="6.544498">
        <ele>3.060824</ele>
        <time>2026-09-03T06:41:33.926Z</time>
      </trkpt>
      <trkpt lat="53.234377" lon="6.544457">
        <ele>3.049423</ele>
        <time>2026-09-03T06:41:37.926Z</time>
      </trkpt>
      <trkpt lat="53.234265" lon="6.544396">
        <ele>3.036501</ele>
        <time>2026-09-03T06:41:41.926Z</time>
      </trkpt>
      <trkpt lat="53.234172" lon="6.544503">
        <ele>3.024114</ele>
        <time>2026-09-03T06:41:46.922Z</time>
      </trkpt>
      <trkpt lat="53.234082" lon="6.544617">
        <ele>3.011725</ele>
        <time>2026-09-03T06:41:50.933Z</time>
      </trkpt>
      <trkpt lat="53.233980" lon="6.544558">
        <ele>2.999885</ele>
        <time>2026-09-03T06:41:54.925Z</time>
      </trkpt>
      <trkpt lat="53.233986" lon="6.544361">
        <ele>2.986934</ele>
        <time>2026-09-03T06:41:58.934Z</time>
      </trkpt>
      <trkpt lat="53.234044" lon="6.544191">
        <ele>2.974086</ele>
        <time>2026-09-03T06:42:02.921Z</time>
      </trkpt>
      <trkpt lat="53.234141" lon="6.544083">
        <ele>2.961300</ele>
        <time>2026-09-03T06:42:06.924Z</time>
      </trkpt>
      <trkpt lat="53.234234" lon="6.544027">
        <ele>2.950456</ele>
        <time>2026-09-03T06:42:12.927Z</time>
      </trkpt>
      <trkpt lat="53.234264" lon="6.543881">
        <ele>2.940321</ele>
        <time>2026-09-03T06:42:16.950Z</time>
      </trkpt>
      <trkpt lat="53.234342" lon="6.543803">
        <ele>2.930349</ele>
        <time>2026-09-03T06:42:20.924Z</time>
      </trkpt>
      <trkpt lat="53.234438" lon="6.543760">
        <ele>2.919447</ele>
        <time>2026-09-03T06:42:24.929Z</time>
      </trkpt>
      <trkpt lat="53.234487" lon="6.543895">
        <ele>2.909081</ele>
        <time>2026-09-03T06:42:28.933Z</time>
      </trkpt>
      <trkpt lat="53.234510" lon="6.544048">
        <ele>2.896114</ele>
        <time>2026-09-03T06:42:31.924Z</time>
      </trkpt>
      <trkpt lat="53.234530" lon="6.544231">
        <ele>2.878426</ele>
        <time>2026-09-03T06:42:35.921Z</time>
      </trkpt>
      <trkpt lat="53.234616" lon="6.544302">
        <ele>2.863186</ele>
        <time>2026-09-03T06:42:41.934Z</time>
      </trkpt>
      <trkpt lat="53.234706" lon="6.544213">
        <ele>2.846572</ele>
        <time>2026-09-03T06:42:45.933Z</time>
      </trkpt>
      <trkpt lat="53.234784" lon="6.544134">
        <ele>2.832081</ele>
        <time>2026-09-03T06:42:50.926Z</time>
      </trkpt>
      <trkpt lat="53.234879" lon="6.544057">
        <ele>2.815307</ele>
        <time>2026-09-03T06:42:56.922Z</time>
      </trkpt>
      <trkpt lat="53.234970" lon="6.544057">
        <ele>2.800851</ele>
        <time>2026-09-03T06:42:59.919Z</time>
      </trkpt>
      <trkpt lat="53.235067" lon="6.544082">
        <ele>2.785259</ele>
        <time>2026-09-03T06:43:02.921Z</time>
      </trkpt>
      <trkpt lat="53.235157" lon="6.544102">
        <ele>2.770835</ele>
        <time>2026-09-03T06:43:05.923Z</time>
      </trkpt>
      <trkpt lat="53.235270" lon="6.544128">
        <ele>2.752714</ele>
        <time>2026-09-03T06:43:09.925Z</time>
      </trkpt>
      <trkpt lat="53.235382" lon="6.544139">
        <ele>2.734890</ele>
        <time>2026-09-03T06:43:13.927Z</time>
      </trkpt>
      <trkpt lat="53.235485" lon="6.544085">
        <ele>2.717741</ele>
        <time>2026-09-03T06:43:17.921Z</time>
      </trkpt>
      <trkpt lat="53.235563" lon="6.544006">
        <ele>2.703250</ele>
        <time>2026-09-03T06:43:21.921Z</time>
      </trkpt>
      <trkpt lat="53.235495" lon="6.543897">
        <ele>2.688280</ele>
        <time>2026-09-03T06:43:30.928Z</time>
      </trkpt>
      <trkpt lat="53.235388" lon="6.543840">
        <ele>2.670438</ele>
        <time>2026-09-03T06:43:34.929Z</time>
      </trkpt>
      <trkpt lat="53.235369" lon="6.543991">
        <ele>2.655767</ele>
        <time>2026-09-03T06:43:46.925Z</time>
      </trkpt>
      <trkpt lat="53.235299" lon="6.544115">
        <ele>2.639559</ele>
        <time>2026-09-03T06:43:50.925Z</time>
      </trkpt>
      <trkpt lat="53.235203" lon="6.544095">
        <ele>2.624190</ele>
        <time>2026-09-03T06:43:53.929Z</time>
      </trkpt>
      <trkpt lat="53.235107" lon="6.544070">
        <ele>2.623637</ele>
        <time>2026-09-03T06:43:56.928Z</time>
      </trkpt>
      <trkpt lat="53.234988" lon="6.544032">
        <ele>2.632891</ele>
        <time>2026-09-03T06:44:00.926Z</time>
      </trkpt>
      <trkpt lat="53.234896" lon="6.544036">
        <ele>2.639920</ele>
        <time>2026-09-03T06:44:03.925Z</time>
      </trkpt>
      <trkpt lat="53.234795" lon="6.544046">
        <ele>2.647648</ele>
        <time>2026-09-03T06:44:07.933Z</time>
      </trkpt>
      <trkpt lat="53.234718" lon="6.543902">
        <ele>2.656475</ele>
        <time>2026-09-03T06:44:11.922Z</time>
      </trkpt>
      <trkpt lat="53.234694" lon="6.543751">
        <ele>2.663617</ele>
        <time>2026-09-03T06:44:14.921Z</time>
      </trkpt>
      <trkpt lat="53.234660" lon="6.543567">
        <ele>2.672420</ele>
        <time>2026-09-03T06:44:18.933Z</time>
      </trkpt>
      <trkpt lat="53.234631" lon="6.543380">
        <ele>2.681251</ele>
        <time>2026-09-03T06:44:22.926Z</time>
      </trkpt>
      <trkpt lat="53.234604" lon="6.543225">
        <ele>2.688631</ele>
        <time>2026-09-03T06:44:26.929Z</time>
      </trkpt>
      <trkpt lat="53.234652" lon="6.543086">
        <ele>2.695967</ele>
        <time>2026-09-03T06:44:30.929Z</time>
      </trkpt>
      <trkpt lat="53.234750" lon="6.543027">
        <ele>2.703923</ele>
        <time>2026-09-03T06:44:33.930Z</time>
      </trkpt>
      <trkpt lat="53.234860" lon="6.542967">
        <ele>2.712761</ele>
        <time>2026-09-03T06:44:36.927Z</time>
      </trkpt>
      <trkpt lat="53.234960" lon="6.542909">
        <ele>2.720846</ele>
        <time>2026-09-03T06:44:39.927Z</time>
      </trkpt>
      <trkpt lat="53.235073" lon="6.542864">
        <ele>2.729719</ele>
        <time>2026-09-03T06:44:42.928Z</time>
      </trkpt>
      <trkpt lat="53.235190" lon="6.542804">
        <ele>2.739066</ele>
        <time>2026-09-03T06:44:45.927Z</time>
      </trkpt>
      <trkpt lat="53.235307" lon="6.542743">
        <ele>2.748427</ele>
        <time>2026-09-03T06:44:48.926Z</time>
      </trkpt>
      <trkpt lat="53.235408" lon="6.542684">
        <ele>2.757039</ele>
        <time>2026-09-03T06:44:51.926Z</time>
      </trkpt>
      <trkpt lat="53.235503" lon="6.542638">
        <ele>2.772528</ele>
        <time>2026-09-03T06:44:54.934Z</time>
      </trkpt>
      <trkpt lat="53.235608" lon="6.542590">
        <ele>2.789576</ele>
        <time>2026-09-03T06:44:57.928Z</time>
      </trkpt>
      <trkpt lat="53.235672" lon="6.542437">
        <ele>2.807072</ele>
        <time>2026-09-03T06:45:00.927Z</time>
      </trkpt>
      <trkpt lat="53.235651" lon="6.542234">
        <ele>2.826382</ele>
        <time>2026-09-03T06:45:03.927Z</time>
      </trkpt>
      <trkpt lat="53.235613" lon="6.542039">
        <ele>2.845604</ele>
        <time>2026-09-03T06:45:06.927Z</time>
      </trkpt>
      <trkpt lat="53.235580" lon="6.541857">
        <ele>2.863429</ele>
        <time>2026-09-03T06:45:09.930Z</time>
      </trkpt>
      <trkpt lat="53.235547" lon="6.541657">
        <ele>2.882875</ele>
        <time>2026-09-03T06:45:12.922Z</time>
      </trkpt>
      <trkpt lat="53.235505" lon="6.541461">
        <ele>2.902388</ele>
        <time>2026-09-03T06:45:15.927Z</time>
      </trkpt>
      <trkpt lat="53.235466" lon="6.541273">
        <ele>2.921038</ele>
        <time>2026-09-03T06:45:18.922Z</time>
      </trkpt>
      <trkpt lat="53.235427" lon="6.541101">
        <ele>2.938278</ele>
        <time>2026-09-03T06:45:21.933Z</time>
      </trkpt>
      <trkpt lat="53.235380" lon="6.540922">
        <ele>2.956600</ele>
        <time>2026-09-03T06:45:24.926Z</time>
      </trkpt>
      <trkpt lat="53.235327" lon="6.540779">
        <ele>2.972365</ele>
        <time>2026-09-03T06:45:27.926Z</time>
      </trkpt>
      <trkpt lat="53.235294" lon="6.540598">
        <ele>2.990100</ele>
        <time>2026-09-03T06:45:31.927Z</time>
      </trkpt>
      <trkpt lat="53.235264" lon="6.540447">
        <ele>3.005013</ele>
        <time>2026-09-03T06:45:34.926Z</time>
      </trkpt>
      <trkpt lat="53.235239" lon="6.540289">
        <ele>3.020332</ele>
        <time>2026-09-03T06:45:37.929Z</time>
      </trkpt>
      <trkpt lat="53.235214" lon="6.540133">
        <ele>3.035469</ele>
        <time>2026-09-03T06:45:40.925Z</time>
      </trkpt>
      <trkpt lat="53.235184" lon="6.539970">
        <ele>3.072869</ele>
        <time>2026-09-03T06:45:43.922Z</time>
      </trkpt>
      <trkpt lat="53.235162" lon="6.539805">
        <ele>3.113669</ele>
        <time>2026-09-03T06:45:46.925Z</time>
      </trkpt>
      <trkpt lat="53.235126" lon="6.539642">
        <ele>3.155603</ele>
        <time>2026-09-03T06:45:49.923Z</time>
      </trkpt>
      <trkpt lat="53.235106" lon="6.539489">
        <ele>3.193402</ele>
        <time>2026-09-03T06:45:52.933Z</time>
      </trkpt>
      <trkpt lat="53.235118" lon="6.539316">
        <ele>3.235436</ele>
        <time>2026-09-03T06:45:56.926Z</time>
      </trkpt>
      <trkpt lat="53.235230" lon="6.539269">
        <ele>3.282003</ele>
        <time>2026-09-03T06:46:00.936Z</time>
      </trkpt>
      <trkpt lat="53.235323" lon="6.539205">
        <ele>3.322562</ele>
        <time>2026-09-03T06:46:03.922Z</time>
      </trkpt>
      <trkpt lat="53.235422" lon="6.539163">
        <ele>3.363751</ele>
        <time>2026-09-03T06:46:06.933Z</time>
      </trkpt>
      <trkpt lat="53.235524" lon="6.539120">
        <ele>3.406172</ele>
        <time>2026-09-03T06:46:10.926Z</time>
      </trkpt>
      <trkpt lat="53.235611" lon="6.539063">
        <ele>3.443856</ele>
        <time>2026-09-03T06:46:22.929Z</time>
      </trkpt>
      <trkpt lat="53.235725" lon="6.538993">
        <ele>3.492833</ele>
        <time>2026-09-03T06:46:26.934Z</time>
      </trkpt>
      <trkpt lat="53.235825" lon="6.538905">
        <ele>3.538409</ele>
        <time>2026-09-03T06:46:29.934Z</time>
      </trkpt>
      <trkpt lat="53.235934" lon="6.538833">
        <ele>3.585674</ele>
        <time>2026-09-03T06:46:32.933Z</time>
      </trkpt>
      <trkpt lat="53.236070" lon="6.538814">
        <ele>3.640708</ele>
        <time>2026-09-03T06:46:35.923Z</time>
      </trkpt>
      <trkpt lat="53.236186" lon="6.538726">
        <ele>3.692081</ele>
        <time>2026-09-03T06:46:38.928Z</time>
      </trkpt>
      <trkpt lat="53.236309" lon="6.538667">
        <ele>3.743685</ele>
        <time>2026-09-03T06:46:41.933Z</time>
      </trkpt>
      <trkpt lat="53.236422" lon="6.538595">
        <ele>3.758273</ele>
        <time>2026-09-03T06:46:44.924Z</time>
      </trkpt>
      <trkpt lat="53.236521" lon="6.538544">
        <ele>3.751299</ele>
        <time>2026-09-03T06:46:47.926Z</time>
      </trkpt>
      <trkpt lat="53.236628" lon="6.538601">
        <ele>3.743739</ele>
        <time>2026-09-03T06:46:51.922Z</time>
      </trkpt>
      <trkpt lat="53.236671" lon="6.538752">
        <ele>3.737002</ele>
        <time>2026-09-03T06:46:54.934Z</time>
      </trkpt>
      <trkpt lat="53.236713" lon="6.538899">
        <ele>3.730439</ele>
        <time>2026-09-03T06:46:57.926Z</time>
      </trkpt>
      <trkpt lat="53.236809" lon="6.538894">
        <ele>3.723974</ele>
        <time>2026-09-03T06:47:01.933Z</time>
      </trkpt>
      <trkpt lat="53.236893" lon="6.538816">
        <ele>3.717505</ele>
        <time>2026-09-03T06:47:04.924Z</time>
      </trkpt>
      <trkpt lat="53.236978" lon="6.538732">
        <ele>3.710857</ele>
        <time>2026-09-03T06:47:07.927Z</time>
      </trkpt>
      <trkpt lat="53.237072" lon="6.538654">
        <ele>3.703792</ele>
        <time>2026-09-03T06:47:10.926Z</time>
      </trkpt>
      <trkpt lat="53.237165" lon="6.538579">
        <ele>3.696841</ele>
        <time>2026-09-03T06:47:13.926Z</time>
      </trkpt>
      <trkpt lat="53.237246" lon="6.538502">
        <ele>3.690568</ele>
        <time>2026-09-03T06:47:16.926Z</time>
      </trkpt>
      <trkpt lat="53.237256" lon="6.538345">
        <ele>3.684207</ele>
        <time>2026-09-03T06:47:19.928Z</time>
      </trkpt>
      <trkpt lat="53.237269" lon="6.538159">
        <ele>3.676662</ele>
        <time>2026-09-03T06:47:23.926Z</time>
      </trkpt>
      <trkpt lat="53.237360" lon="6.538089">
        <ele>3.669919</ele>
        <time>2026-09-03T06:47:26.929Z</time>
      </trkpt>
      <trkpt lat="53.237469" lon="6.538017">
        <ele>3.662029</ele>
        <time>2026-09-03T06:47:29.929Z</time>
      </trkpt>
      <trkpt lat="53.237564" lon="6.537951">
        <ele>3.655103</ele>
        <time>2026-09-03T06:47:32.928Z</time>
      </trkpt>
      <trkpt lat="53.237677" lon="6.537884">
        <ele>3.647032</ele>
        <time>2026-09-03T06:47:35.931Z</time>
      </trkpt>
      <trkpt lat="53.237784" lon="6.537809">
        <ele>3.658251</ele>
        <time>2026-09-03T06:47:38.921Z</time>
      </trkpt>
      <trkpt lat="53.237894" lon="6.537724">
        <ele>3.704265</ele>
        <time>2026-09-03T06:47:41.926Z</time>
      </trkpt>
      <trkpt lat="53.237998" lon="6.537640">
        <ele>3.748122</ele>
        <time>2026-09-03T06:47:44.921Z</time>
      </trkpt>
      <trkpt lat="53.238103" lon="6.537564">
        <ele>3.791567</ele>
        <time>2026-09-03T06:47:47.924Z</time>
      </trkpt>
      <trkpt lat="53.238208" lon="6.537479">
        <ele>3.835865</ele>
        <time>2026-09-03T06:47:50.922Z</time>
      </trkpt>
      <trkpt lat="53.238314" lon="6.537391">
        <ele>3.880804</ele>
        <time>2026-09-03T06:47:53.933Z</time>
      </trkpt>
      <trkpt lat="53.238425" lon="6.537309">
        <ele>3.926883</ele>
        <time>2026-09-03T06:47:56.929Z</time>
      </trkpt>
      <trkpt lat="53.238540" lon="6.537239">
        <ele>3.973352</ele>
        <time>2026-09-03T06:47:59.934Z</time>
      </trkpt>
      <trkpt lat="53.238655" lon="6.537156">
        <ele>4.020914</ele>
        <time>2026-09-03T06:48:02.926Z</time>
      </trkpt>
      <trkpt lat="53.238773" lon="6.537064">
        <ele>4.070352</ele>
        <time>2026-09-03T06:48:05.933Z</time>
      </trkpt>
      <trkpt lat="53.238887" lon="6.536989">
        <ele>4.116869</ele>
        <time>2026-09-03T06:48:08.925Z</time>
      </trkpt>
      <trkpt lat="53.239010" lon="6.536907">
        <ele>4.167148</ele>
        <time>2026-09-03T06:48:11.928Z</time>
      </trkpt>
      <trkpt lat="53.239132" lon="6.536832">
        <ele>4.216504</ele>
        <time>2026-09-03T06:48:14.933Z</time>
      </trkpt>
      <trkpt lat="53.239248" lon="6.536758">
        <ele>4.263646</ele>
        <time>2026-09-03T06:48:17.926Z</time>
      </trkpt>
      <trkpt lat="53.239351" lon="6.536686">
        <ele>4.306036</ele>
        <time>2026-09-03T06:48:20.928Z</time>
      </trkpt>
      <trkpt lat="53.239455" lon="6.536605">
        <ele>4.324979</ele>
        <time>2026-09-03T06:48:23.925Z</time>
      </trkpt>
      <trkpt lat="53.239558" lon="6.536520">
        <ele>4.324979</ele>
        <time>2026-09-03T06:48:26.929Z</time>
      </trkpt>
      <trkpt lat="53.239661" lon="6.536430">
        <ele>4.324979</ele>
        <time>2026-09-03T06:48:29.926Z</time>
      </trkpt>
      <trkpt lat="53.239774" lon="6.536346">
        <ele>4.324979</ele>
        <time>2026-09-03T06:48:32.929Z</time>
      </trkpt>
      <trkpt lat="53.239874" lon="6.536273">
        <ele>4.324979</ele>
        <time>2026-09-03T06:48:35.929Z</time>
      </trkpt>
      <trkpt lat="53.239973" lon="6.536218">
        <ele>4.324979</ele>
        <time>2026-09-03T06:48:38.925Z</time>
      </trkpt>
      <trkpt lat="53.240065" lon="6.536223">
        <ele>4.324979</ele>
        <time>2026-09-03T06:48:42.936Z</time>
      </trkpt>
      <trkpt lat="53.240083" lon="6.536417">
        <ele>4.324979</ele>
        <time>2026-09-03T06:48:46.927Z</time>
      </trkpt>
      <trkpt lat="53.240128" lon="6.536596">
        <ele>4.324979</ele>
        <time>2026-09-03T06:48:49.929Z</time>
      </trkpt>
      <trkpt lat="53.240168" lon="6.536779">
        <ele>4.324979</ele>
        <time>2026-09-03T06:48:52.927Z</time>
      </trkpt>
      <trkpt lat="53.240239" lon="6.536878">
        <ele>4.324979</ele>
        <time>2026-09-03T06:48:55.927Z</time>
      </trkpt>
      <trkpt lat="53.240327" lon="6.536835">
        <ele>4.324979</ele>
        <time>2026-09-03T06:49:00.926Z</time>
      </trkpt>
      <trkpt lat="53.240424" lon="6.536752">
        <ele>4.324979</ele>
        <time>2026-09-03T06:49:04.941Z</time>
      </trkpt>
    </trkseg>
  </trk>
</gpx>